Oahu Real Estate Price Drops
Search Open Houses Buyer's Rebate Sell for 2% Sell for $2,500 Statistics Help Tools Saved Searches Testimonials Team Contact

Oahu Real Estate

Book a Showing * Sell for 2% Full Service * Sell for a $2,500 Flat Fee


Price Drops

     

Count Address Status List Date Original Price Current Price Difference Region Neighborhood Building Name
1 1555 Kapiolani Boulevard 1000 Active 08-22-2019 $2,220,000 $2,200,000 $20,000 Metro Ala Moana One Ala Moana
2 1515 Ward Avenue 1002 Active 08-21-2019 $470,000 $468,000 $2,000 Metro Punchbowl Area Sky Tower Apts
3 1571 Piikoi Street 402 Active 08-20-2019 $225,000 $210,000 $15,000 Metro Makiki Area Pakalana
4 1650 Ala Moana Boulevard 1113 Active 08-16-2019 $850,000 $835,000 $15,000 Metro Ala Moana Yacht Harbor Towers
5 2572 Lemon Road 308 Active 08-16-2019 $309,900 $259,000 $50,900 Metro Waikiki Tradewinds Plaza
6 95-510 Wikao Street L205 Active 08-14-2019 $425,000 $400,000 $25,000 Central Launani Valley Ridge At Launani Valley
7 616 Wanaao Road Active 08-13-2019 $949,000 $899,000 $50,000 Kailua Enchanted Lake
8 91-1522 Pukanala Street Active 08-13-2019 $865,000 $849,000 $16,000 Ewa Plain Ewa Gen Sonoma
9 99-735 Halawa Drive Active 08-12-2019 $870,000 $840,000 $30,000 Pearl City Halawa
10 67-177 Kuoha Street Active 08-12-2019 $760,000 $740,000 $20,000 North Shore Waialua
Count Address Status List Date Original Price Current Price Difference Region Neighborhood Building Name
11 920 Ward Avenue 9G Active 08-12-2019 $600,000 $590,000 $10,000 Metro Kakaako Royal Court
12 225 Kaiulani Avenue 606 Active 08-10-2019 $339,000 $319,000 $20,000 Metro Waikiki Governor Cleghorn
13 732 Bannister Street Active 08-09-2019 $1,500,000 $1,350,000 $150,000 Metro Kapalama
14 1459 Pele Street 202 Active 08-09-2019 $220,000 $199,000 $21,000 Metro Punchbowl-lower Queens Villa
15 Active 08-08-2019 $810,000 $799,000 $11,000 Pearl City Momilani
16 896 Ailuna Street Active 08-07-2019 $965,000 $945,000 $20,000 Diamond Head Aina Haina Area
17 2455 Pacific Hts Road D Active 08-07-2019 $865,000 $849,000 $16,000 Metro Pacific Heights
18 201 Ohua Avenue Mauka 3706 Active 08-07-2019 $668,000 $649,000 $19,000 Metro Waikiki Waikiki Banyan
19 545 Queen Street 222 Active 08-07-2019 $365,000 $352,500 $12,500 Metro Kakaako Honuakaha
20 445 Kaiolu Street 312 Active 08-07-2019 $299,000 $289,000 $10,000 Metro Waikiki Rosalei Ltd
Count Address Status List Date Original Price Current Price Difference Region Neighborhood Building Name
21 91-1188 Makaaloa Street Active 08-06-2019 $865,000 $835,000 $30,000 Ewa Plain Westloch Fairway
22 1447 Kewalo Street 301 Active 08-06-2019 $398,000 $390,000 $8,000 Metro Makiki Area Ode Rancho
23 44-133-3 Hako Street 1203 Active 08-05-2019 $625,000 $598,000 $27,000 Kaneohe Country Club Yacht Club Terrace
24 1778 Ala Moana Boulevard 2702 Active 08-05-2019 $340,000 $310,000 $30,000 Metro Waikiki Discovery Bay
25 94-639 Kuaie Street Active 08-03-2019 $795,000 $785,000 $10,000 Central Mililani Area
26 95-1012 Paemoku Street Active 08-02-2019 $1,280,000 $1,230,000 $50,000 Central Mililani Mauka
27 1602 Ala Aolani Street Active 08-02-2019 $890,000 $860,000 $30,000 Metro Moanalua Valley
28 1015 Aoloa Place 325 Active 08-02-2019 $590,000 $570,000 $20,000 Kailua Kailua Town Poinciana Manor
29 540 Manawai Street 602 Active 08-02-2019 $510,000 $499,000 $11,000 Ewa Plain Kapolei-mehana-awakea Awakea
30 1415 Punahou Street 504 Active 08-02-2019 $375,000 $358,000 $17,000 Metro Punahou Jason Apts
Count Address Status List Date Original Price Current Price Difference Region Neighborhood Building Name
31 2240 Kuhio Avenue 2106 Active 08-02-2019 $245,000 $235,000 $10,000 Metro Waikiki Royal Kuhio
32 279 N Kalaheo Avenue Active 08-01-2019 $1,970,000 $1,850,000 $120,000 Kailua Kalama Tract
33 1551 Lehua Street Active 08-01-2019 $850,000 $750,000 $100,000 Metro Kalihi-upper
34 87-180 Manuliilii Place Active 08-01-2019 $768,000 $738,000 $30,000 Leeward Maili
35 99-015 Kalaloa Street 501 Active 08-01-2019 $345,000 $339,900 $5,100 Pearl City Halawa Centre Court
36 1561 Pensacola Street 1704 Active 08-01-2019 $330,000 $320,000 $10,000 Metro Makiki Area Makiki Plaza
37 95-1050 Makaikai Street 10N Active 08-01-2019 $302,000 $299,000 $3,000 Central Mililani Mauka Olaloa 1
38 44-137E Kauinohea Place Active 07-31-2019 $999,000 $985,000 $14,000 Kaneohe Bay View Garden
39 94-159 Kupuna Loop Active 07-31-2019 $725,000 $700,000 $25,000 Waipahu Village Park
40 91-819C Peeone Place Active 07-31-2019 $625,000 $595,000 $30,000 Ewa Plain Ewa Beach
Count Address Status List Date Original Price Current Price Difference Region Neighborhood Building Name
41 98-863 Kaonohi Street C Active 07-31-2019 $550,000 $535,000 $15,000 Pearl City Pearlridge Ridgeway B1
42 91-158 Puhikani Place Active 07-30-2019 $699,000 $685,000 $14,000 Ewa Plain Ewa Gen Sun Terra
43 2825 S King Street 2502 Active 07-30-2019 $538,000 $534,000 $4,000 Metro Moiliili Contessa
44 1515 Ward Avenue 1506 Active 07-30-2019 $529,000 $509,000 $20,000 Metro Punchbowl Area Sky Tower Apts
45 445 Seaside Avenue 4412 Active 07-30-2019 $349,000 $339,000 $10,000 Metro Waikiki Island Colony
46 170 Mookua Street Active 07-29-2019 $1,725,000 $1,647,000 $78,000 Kailua Kalama Tract
47 618A Halela Street Active 07-29-2019 $900,000 $895,000 $5,000 Kailua Coconut Grove
48 1109 Loho Street Active 07-29-2019 $750,000 $740,000 $10,000 Kailua Keolu Hills
49 95-743 Maiaku Street Active 07-29-2019 $732,900 $696,900 $36,000 Central Mililani Area
50 91-1114 Kaileolea Drive Active 07-29-2019 $648,000 $638,000 $10,000 Ewa Plain Ocean Pointe
Count Address Status List Date Original Price Current Price Difference Region Neighborhood Building Name
51 2033 Nuuanu Avenue 8B Active 07-29-2019 $585,000 $575,000 $10,000 Metro Nuuanu-lower 2033 Nuuanu
52 2222 Aloha Drive 804 Active 07-29-2019 $439,000 $399,000 $40,000 Metro Waikiki Coral Terrace Apts
53 2355 Ala Wai Boulevard 202 Active 07-29-2019 $332,000 $324,000 $8,000 Metro Waikiki Ala Wai Palms
54 47-761 Hui Kelu Street 36/603 Active 07-28-2019 $549,000 $529,000 $20,000 Kaneohe Temple Valley Kahalemanu
55 95-510 Wikao Street M-106 Active 07-28-2019 $385,000 $379,000 $6,000 Central Launani Valley Ridge At Launani Valley
56 92-1085 Palahia Street E Active 07-27-2019 $695,000 $694,000 $1,000 Makakilo Makakilo-upper Hoolu Landing At Makakilo
57 1022 Prospect Street 804E Active 07-26-2019 $795,000 $793,000 $2,000 Metro Punchbowl Area Royal Vista
58 91 202 Wailohia Place Active 07-26-2019 $679,000 $674,000 $5,000 Ewa Plain Ewa Gen Soda Creek
59 383 Kalaimoku Street 3010 Active 07-25-2019 $3,735,000 $3,600,000 $135,000 Metro Waikiki The Ritz-carlton Residences - 383 Kalaim
60 55-022 Kamehameha Highway Active 07-25-2019 $1,800,000 $1,590,000 $210,000 North Shore Laie
Count Address Status List Date Original Price Current Price Difference Region Neighborhood Building Name
61 1526D Palolo Avenue Active 07-25-2019 $1,040,000 $998,000 $42,000 Diamond Head Palolo
62 1526F Palolo Avenue Active 07-25-2019 $1,040,000 $998,000 $42,000 Diamond Head Palolo
63 91-1141 Kaiee Street Active 07-25-2019 $899,000 $889,000 $10,000 Ewa Plain Ocean Pointe
64 95-1089 Paalii Street 155 Active 07-25-2019 $865,000 $855,000 $10,000 Central Mililani Mauka
65 94-1132 Lumiauau Street Active 07-25-2019 $715,900 $645,000 $70,900 Waipahu Crestview
66 7156 Hawaii Kai Drive 211 Active 07-25-2019 $608,000 $599,000 $9,000 Hawaii Kai West Marina Lalea At Hawaii Kai Iii
67 92-351 Laaloa Street Active 07-25-2019 $623,000 $595,000 $28,000 Ewa Plain Nanakai Gardens
68 47-405-1 Hui Iwa Street 1 Active 07-25-2019 $580,000 $570,000 $10,000 Kaneohe Temple Valley Tropicana Village-haiku
69 2452 Tusitala Street 1610 Active 07-25-2019 $530,000 $520,000 $10,000 Metro Waikiki Waikiki Lanais
70 95-1165 Makaikai Street A209 Active 07-25-2019 $455,000 $448,000 $7,000 Central Mililani Mauka Hillsdale 4
Count Address Status List Date Original Price Current Price Difference Region Neighborhood Building Name
71 1229 Kokea Street A201 Active 07-25-2019 $375,000 $370,000 $5,000 Metro Kapalama Kokea Gardens
72 223 Saratoga Road 3202 Active 07-24-2019 $2,260,000 $2,090,000 $170,000 Metro Waikiki Trump Tower Waikiki
73 95-269 Waikalani Drive C1004 Active 07-24-2019 $359,900 $355,000 $4,900 Central Waipio Acres-waikalani Woodlands Waikalani Woodlands
74 2211 Ala Wai Boulevard 1412 Active 07-24-2019 $315,000 $309,000 $6,000 Metro Waikiki Aloha Lani
75 1525 Pensacola Street 101 Active 07-24-2019 $280,000 $270,000 $10,000 Metro Makiki Area 1525 Pensacola
76 1635 Palolo Avenue Active 07-23-2019 $1,550,000 $1,498,000 $52,000 Diamond Head Palolo
77 888 Kapiolani Boulevard 1109 Active 07-23-2019 $1,325,000 $1,299,000 $26,000 Metro Kakaako Symphony Honolulu
78 47-321 Mawaena Street Active 07-23-2019 $1,100,000 $1,025,000 $75,000 Kaneohe Lulani Ocean
79 229 Paoakalani Avenue 714 Active 07-23-2019 $488,000 $440,000 $48,000 Metro Waikiki Waikiki Sunset
80 336 N Kuakini Street 432 Active 07-23-2019 $415,000 $407,900 $7,100 Metro Nuuanu-lower Lynwyd
Count Address Status List Date Original Price Current Price Difference Region Neighborhood Building Name
81 68-099 Au Street 3 Active 07-23-2019 $395,950 $375,000 $20,950 North Shore Waialua Naupaka
82 1335 Wilder Avenue 306 Active 07-23-2019 $368,888 $358,888 $10,000 Metro Makiki Area Wilder-keeaumoku Apts
83 87-209 Helelua Street 2 Active 07-23-2019 $220,000 $210,000 $10,000 Leeward Maili Puu Heleakala
84 5066 Poola Street Active 07-22-2019 $1,359,000 $1,309,000 $50,000 Diamond Head Waialae Iki
85 600 Queen Street 3409 Active 07-22-2019 $1,199,950 $1,129,000 $70,950 Metro Kakaako Keola Lai
86 175 Aikahi Loop Active 07-22-2019 $1,145,000 $1,125,000 $20,000 Kailua Aikahi Park
87 7540 Mokunoio Place Active 07-22-2019 $1,125,000 $1,100,000 $25,000 Hawaii Kai Kalama Valley
88 1777 Ala Moana Boulevard 1830 Active 07-22-2019 $739,900 $729,900 $10,000 Metro Waikiki Ilikai Apt Bldg
89 1296 Kapiolani Boulevard 1602 Active 07-22-2019 $745,000 $729,000 $16,000 Metro Kakaako Moana Pacific
90 46-359 Haiku Road C2 Active 07-22-2019 $625,000 $610,000 $15,000 Kaneohe Haiku Plantation Eden At Haiku Woods A
Count Address Status List Date Original Price Current Price Difference Region Neighborhood Building Name
91 2440 Kuhio Avenue 1508 Active 07-22-2019 $465,000 $445,000 $20,000 Metro Waikiki Waikiki Park Hgts
92 95-797 Wikao Street B304 Active 07-22-2019 $410,000 $395,000 $15,000 Central Launani Valley Streamside @ Launani Vly 1
93 1210 Wilder Avenue 305 Active 07-22-2019 $389,000 $369,000 $20,000 Metro Makiki Wilder Hale
94 2355 Ala Wai Boulevard 901 Active 07-21-2019 $588,000 $550,000 $38,000 Metro Waikiki Ala Wai Palms
95 930 Hahaione Street Active 07-20-2019 $1,249,000 $1,195,000 $54,000 Hawaii Kai Hahaione-upper
96 2355 Ala Wai Boulevard 908 Active 07-20-2019 $480,000 $450,000 $30,000 Metro Waikiki Ala Wai Palms
97 1314 Piikoi Street 405 Active 07-20-2019 $435,000 $425,000 $10,000 Metro Makiki Area Piikoi Terrace
98 91-1033 Kamaaha Avenue 1807 Active 07-20-2019 $358,000 $355,000 $3,000 Ewa Plain Kapolei Kealakai@kapolei Ii
99 2240 Kuhio Avenue 1814 Active 07-20-2019 $175,000 $165,000 $10,000 Metro Waikiki Royal Kuhio
100 111 Hauoli Street Active 07-19-2019 $2,190,000 $1,999,000 $191,000 Kailua Kalama Tract
Count Address Status List Date Original Price Current Price Difference Region Neighborhood Building Name
101 1025 Kalahu Place Active 07-19-2019 $1,395,000 $1,349,000 $46,000 Hawaii Kai Mariners Ridge
102 3122 Lincoln Avenue Active 07-19-2019 $1,200,000 $1,140,000 $60,000 Diamond Head Kaimuki
103 2330 Makanani Drive Active 07-19-2019 $988,000 $949,000 $39,000 Metro Kamehameha Heights
104 500 Lunalilo Home Road 15G Active 07-19-2019 $710,000 $699,000 $11,000 Hawaii Kai West Marina Esplanade
105 2015 Ala Wai Boulevard 5C Active 07-19-2019 $538,000 $525,000 $13,000 Metro Waikiki Bel-aire The
106 1630 Liholiho Street 1001 Active 07-19-2019 $370,000 $359,000 $11,000 Metro Makiki Camelot
107 435 Seaside Avenue 603 Active 07-19-2019 $345,000 $330,000 $15,000 Metro Waikiki Seaside Towers
108 4596 Likini Street Active 07-18-2019 $1,450,000 $1,375,000 $75,000 Metro Aliamanu
109 94-198 Waipahu Street Active 07-18-2019 $856,000 $848,000 $8,000 Waipahu Robinson Heights
110 91-196 Wailohia Place Active 07-18-2019 $650,000 $600,000 $50,000 Ewa Plain Ewa Gen Soda Creek
Count Address Status List Date Original Price Current Price Difference Region Neighborhood Building Name
111 87-2213 Pakeke Street Active 07-18-2019 $595,000 $585,000 $10,000 Leeward Maili
112 2525 Date Street 2001 Active 07-18-2019 $548,000 $538,000 $10,000 Metro Kapiolani Regency Tower
113 750 Kaheka Street 1105 Active 07-18-2019 $514,888 $508,888 $6,000 Metro Holiday Mart Kapiolani Belaire
114 46-130 Kiowai Street 2713 Active 07-18-2019 $485,000 $479,000 $6,000 Kaneohe Puualii Puu Alii 2-2
115 1020 Spencer Street 6 Active 07-17-2019 $1,199,000 $1,149,000 $50,000 Metro Punchbowl Area Spencer Court
116 47-253C Hui Iwa Street 43 Active 07-17-2019 $651,000 $630,000 $21,000 Kaneohe Temple Valley Hokuloa A
117 3054 Ala Poha Place 1209 Active 07-17-2019 $588,888 $578,888 $10,000 Metro Salt Lake Country Club Village 4
118 57-091 Lalo Kuilima Place 67 Active 07-17-2019 $569,000 $556,000 $13,000 North Shore Kuilima Kuilima Ests East
119 6770 Hawaii Kai Drive 23 Active 07-17-2019 $558,000 $553,000 $5,000 Hawaii Kai Hahaione-lower Plaza Hawaii Kai
120 430 Keoniana Street 204 Active 07-17-2019 $519,000 $510,000 $9,000 Metro Waikiki Keoni Ana
Count Address Status List Date Original Price Current Price Difference Region Neighborhood Building Name
121 444 Nahua Street 707 Active 07-17-2019 $450,000 $425,000 $25,000 Metro Waikiki 444 Nahua
122 133 Lakeview Circle 5 Active 07-17-2019 $270,000 $237,500 $32,500 Central Wilikina 133 Lakeview
123 1571 Piikoi Street 405 Active 07-17-2019 $219,000 $209,000 $10,000 Metro Makiki Area Pakalana
124 59-632 Maulukua Place Active 07-16-2019 $1,189,000 $1,149,000 $40,000 North Shore Pupukea
125 115 Cypress Avenue D Active 07-16-2019 $615,000 $599,000 $16,000 Central Wahiawa Area
126 1860 Ala Moana Boulevard 810 Active 07-16-2019 $569,000 $549,000 $20,000 Metro Waikiki Wailana At Waikiki
127 2410 Cleghorn Street 2902 Active 07-16-2019 $580,000 $545,000 $35,000 Metro Waikiki Waikiki Skytower
128 1205 Ala Alii Street 82 Active 07-16-2019 $388,000 $375,000 $13,000 Pearl City Halawa Alii Plantation 3
129 65-670 Kaukonahua Road 20 Active 07-15-2019 $2,200,000 $1,985,000 $215,000 North Shore Ag-preserve
130 1315 Lopaka Place Active 07-15-2019 $2,195,000 $1,799,900 $395,100 Kailua Maunawili
Count Address Status List Date Original Price Current Price Difference Region Neighborhood Building Name
131 54-269 Kamehameha Highway I Active 07-15-2019 $1,350,000 $1,250,000 $100,000 Kaneohe Hauula 54-269 Kamehameha Highway
132 421 Olohana Street 2302 Active 07-15-2019 $1,050,000 $1,030,000 $20,000 Metro Waikiki Lanikea At Waikiki
133 3555 Woodlawn Drive Active 07-15-2019 $1,049,000 $975,000 $74,000 Metro Manoa-woodlawn
134 1199 Bishop Street 23A Active 07-15-2019 $975,000 $950,000 $25,000 Metro Downtown The Pinnacle Honolulu
135 47-774 Kamehameha Highway Active 07-15-2019 $811,200 $760,000 $51,200 Kaneohe Kaalaea
136 1130 Wainiha Street C Active 07-15-2019 $598,000 $577,000 $21,000 Hawaii Kai Mariners Valley Mariners Village 3
137 725 Kapiolani Boulevard 702 Active 07-15-2019 $590,000 $540,000 $50,000 Metro Kakaako Imperial Plaza
138 60 N Beretania Street PHB4 Active 07-15-2019 $510,000 $499,999 $10,001 Metro Chinatown Honolulu Tower
139 95-751 Hokuwelowelo Place K201 Active 07-15-2019 $405,000 $389,000 $16,000 Central Mililani Area Mililani Terrace
140 94-302 Paiwa Street 1109 Active 07-15-2019 $350,000 $345,000 $5,000 Waipahu Waipahu-lower Plantation Town Apartments
Count Address Status List Date Original Price Current Price Difference Region Neighborhood Building Name
141 2947 Kalakaua Avenue 1101 Active 07-15-2019 $330,000 $299,000 $31,000 Diamond Head Diamond Head Diamond Head Bch Hotel
142 3612 Woodlawn Drive Active 07-14-2019 $1,868,000 $1,798,000 $70,000 Metro Manoa-woodlawn
143 201 Ohua Avenue 808 II Active 07-14-2019 $650,000 $630,000 $20,000 Metro Waikiki Waikiki Banyan
144 56-362 Peawini Place Active 07-14-2019 $615,000 $600,000 $15,000 North Shore Kahuku
145 92-1144 Hame Street 9206 Active 07-14-2019 $387,000 $383,000 $4,000 Makakilo Makakilo-upper Makakilo Cliffs
146 3953-3959 Round Top Drive Active 07-13-2019 $2,794,500 $2,654,775 $139,725 Metro Tantalus
147 3959 Round Top Drive Active 07-13-2019 $1,849,500 $1,757,025 $92,475 Metro Tantalus
148 2533 Ala Wai Boulevard 702 Active 07-13-2019 $499,000 $489,000 $10,000 Metro Waikiki Kealani
149 755 McNeill Street A309 Active 07-13-2019 $370,000 $365,000 $5,000 Metro Kalihi Area Holiday Gardens
150 94-1027 Kihikihi Street Active 07-12-2019 $867,000 $855,000 $12,000 Waipahu Royal Kunia
Count Address Status List Date Original Price Current Price Difference Region Neighborhood Building Name
151 53-018 A Makao Road 1 Active 07-12-2019 $707,000 $699,000 $8,000 Kaneohe Hauula
152 91-1045 Hoakalei Street Active 07-12-2019 $630,000 $615,000 $15,000 Ewa Plain Hawaiian Homes Land
153 66-295 Haleiwa Road A209 Active 07-12-2019 $599,000 $550,000 $49,000 North Shore Beach Parks Haleiwa Surf
154 2101 Nuuanu Avenue I2102 Active 07-12-2019 $479,500 $469,500 $10,000 Metro Nuuanu-lower Craigside
155 45-697 Kamehameha Highway 214 Active 07-12-2019 $319,000 $308,500 $10,500 Kaneohe Puohala Village Manai Hale
156 1550 Wilder Avenue A1303 Active 07-12-2019 $230,000 $220,000 $10,000 Metro Makiki Area Punahou Gardens Apts
157 4451 Sierra Drive Active 07-11-2019 $1,298,000 $1,250,000 $48,000 Diamond Head Maunalani Heights
158 146 Maluniu Avenue A Active 07-11-2019 $1,059,000 $1,029,500 $29,500 Kailua Kalama-cnut Grov
159 2575 Kuhio Avenue 1601 Active 07-11-2019 $779,000 $749,000 $30,000 Metro Waikiki Crescent Park
160 60 Beretania Street 3602 Active 07-11-2019 $590,000 $580,000 $10,000 Metro Chinatown Honolulu Tower
Count Address Status List Date Original Price Current Price Difference Region Neighborhood Building Name
161 343 Hobron Lane 705 Active 07-11-2019 $485,000 $480,000 $5,000 Metro Waikiki Windsor The
162 1512 Halekula Way 308 Active 07-11-2019 $455,995 $439,000 $16,995 Metro Punahou Residence At Punahou
163 1920 Ala Moana Boulevard 1106 Active 07-11-2019 $95,000 $88,000 $7,000 Metro Waikiki Inn On The Park
164 542 Ka Awakea Place Active 07-10-2019 $1,029,000 $999,999 $29,001 Kailua Enchanted Lake
165 115 Cypress Avenue D Active 07-10-2019 $615,000 $599,000 $16,000 Central Wahiawa Area Na
166 46-098 Konohiki Street 3321 Active 07-10-2019 $598,000 $563,000 $35,000 Kaneohe Lilipuna Poha Kea Point Ph Iii
167 1178 Kukulu Street 905 Active 07-10-2019 $580,000 $559,000 $21,000 Ewa Plain Kapolei-mehana-pulewa Pulewa At Mehana
168 46-270 Kahuhipa Street A306 Active 07-10-2019 $458,000 $449,000 $9,000 Kaneohe Windward Estates Mountain View Terrace
169 1850 Ala Moana Boulevard 924 Active 07-10-2019 $373,000 $365,000 $8,000 Metro Waikiki Palms At Waikiki
170 2240 Kuhio Avenue 3801 Active 07-10-2019 $275,000 $261,250 $13,750 Metro Waikiki Royal Kuhio
Count Address Status List Date Original Price Current Price Difference Region Neighborhood Building Name
171 904 Prospect Street Active 07-09-2019 $1,250,000 $1,238,000 $12,000 Metro Punchbowl Area
172 1170 Mapuana Street Active 07-09-2019 $915,000 $895,000 $20,000 Kailua Keolu Hills
173 6370 Hawaii Kai Drive 2 Active 07-09-2019 $899,000 $820,000 $79,000 Hawaii Kai West Marina Moorings
174 94-536 Koaleo Street A Active 07-09-2019 $800,000 $798,000 $2,000 Waipahu Robinson Heights
175 1860 Ala Moana Boulevard PH2004 Active 07-09-2019 $655,000 $653,500 $1,500 Metro Waikiki Wailana At Waikiki
176 1133 Waimanu Street 1106 Active 07-09-2019 $567,000 $550,000 $17,000 Metro Kakaako 1133 Waimanu
177 2421 Tusitala Street 1402 Active 07-09-2019 $330,000 $299,500 $30,500 Metro Waikiki Waikiki Townhouse
178 444 Nahua Street 1702 Active 07-09-2019 $230,000 $219,000 $11,000 Metro Waikiki 444 Nahua
179 2069 California Avenue 15B Active 07-09-2019 $125,000 $124,000 $1,000 Central Wahiawa Heights Hidden Valley Ests
180 1033 Hemolele Place Active 07-08-2019 $1,875,000 $1,720,000 $155,000 Metro Alewa Heights
Count Address Status List Date Original Price Current Price Difference Region Neighborhood Building Name
181 94-1033 Lumikula Street Active 07-08-2019 $1,650,000 $1,625,000 $25,000 Waipahu Seaview
182 2215 Kauhana Street Active 07-08-2019 $1,500,000 $1,480,000 $20,000 Diamond Head Palolo
183 1005 Kalahu Place Active 07-08-2019 $1,398,000 $1,320,000 $78,000 Hawaii Kai Mariners Ridge
184 94-237 Pailolo Place Active 07-08-2019 $975,000 $967,000 $8,000 Waipahu Waikele
185 94-966 Lumihoahu Street Active 07-08-2019 $779,000 $775,000 $4,000 Waipahu Seaview
186 1149 Puu Poni Street Active 07-08-2019 $775,000 $764,900 $10,100 Pearl City Pearl City-upper
187 91-1160 Kamakana Street 218 Active 07-08-2019 $630,000 $615,000 $15,000 Ewa Plain Ewa Gen-seabridge
188 430 Lewers Street EWA 2501(25A) Active 07-08-2019 $639,000 $609,000 $30,000 Metro Waikiki Aloha Towers
189 2101 Nuuanu Avenue I1103 Active 07-08-2019 $480,000 $479,000 $1,000 Metro Nuuanu-lower Craigside
190 400 Hobron Lane 1806 Active 07-08-2019 $330,000 $320,000 $10,000 Metro Waikiki Villa On Eaton Square
Count Address Status List Date Original Price Current Price Difference Region Neighborhood Building Name
191 94-245 Leowahine Street 1032 Active 07-08-2019 $229,000 $215,000 $14,000 Waipahu Waipahu-lower Su Casa
192 Active 07-08-2019 $200,000 $198,000 $2,000 Waipahu Waipahu-lower Su Casa
193 84-718 Ala Mahiku Street 21/ #98B Active 07-08-2019 $190,000 $188,500 $1,500 Leeward Makaha Makaha Valley Pltn
194 91-1057 Makaike Street Active 07-07-2019 $837,390 $796,100 $41,290 Ewa Plain Ewa Gen Woodbridge
195 1820 Waiola Street 310 Active 07-07-2019 $386,000 $349,900 $36,100 Metro Mccully Pumehana
196 91-269 Hanapouli Circle 15E Active 07-07-2019 $388,700 $338,100 $50,600 Ewa Plain Ewa Sun Rise
197 383 Kalaimoku Street 1111 Active 07-06-2019 $1,320,000 $1,280,000 $40,000 Metro Waikiki The Ritz-carlton Residences - 383 Kalaim
198 47-509 Apau Loop Active 07-06-2019 $859,000 $855,000 $4,000 Kaneohe Ahuimanu Area
199 66-303 Haleiwa Road A206 Active 07-06-2019 $659,000 $629,888 $29,112 North Shore Beach Parks Haleiwa Surf
200 2873 S King Street 308 Active 07-06-2019 $325,000 $315,000 $10,000 Metro Moiliili Rainbow Terrace
Count Address Status List Date Original Price Current Price Difference Region Neighborhood Building Name
201 5344 Malu Place Active 07-05-2019 $1,025,000 $999,000 $26,000 Diamond Head Waialae Nui Vly
202 1017 Spencer Street 3 Active 07-05-2019 $998,000 $968,000 $30,000 Metro Punchbowl Area
203 1175 Hookahi Street Active 07-05-2019 $825,000 $795,000 $30,000 Pearl City Pearl City-upper
204 47-469 Alawiki Street Active 07-05-2019 $800,000 $770,000 $30,000 Kaneohe Woodridge
205 801 South Street 3721 Active 07-05-2019 $789,000 $770,000 $19,000 Metro Kakaako 801 South St
206 543 Auwai Street A Active 07-05-2019 $759,000 $749,000 $10,000 Kailua Coconut Grove
207 2345 Ala Wai Boulevard 1901 Active 07-05-2019 $725,000 $688,000 $37,000 Metro Waikiki Fairway Villa
208 990 Ala Nanala Street 38B Active 07-05-2019 $615,000 $575,000 $40,000 Metro Salt Lake Franklin Towers
209 14 Aulike Street 405 Active 07-05-2019 $479,000 $469,000 $10,000 Kailua Kailua Town Meridian East
210 46-070 Konane Place 3522 Active 07-04-2019 $653,000 $649,000 $4,000 Kaneohe Lilipuna Poha Kea Point Ph Iii
Count Address Status List Date Original Price Current Price Difference Region Neighborhood Building Name
211 92-795 Makakilo Drive F37 Active 07-04-2019 $445,000 $440,000 $5,000 Makakilo Makakilo-upper Makakilo Gardens 3
212 95-1033 Hoama Street Active 07-03-2019 $1,088,000 $1,065,000 $23,000 Central Mililani Mauka
213 326 A Iolani Avenue Active 07-03-2019 $1,088,000 $1,040,000 $48,000 Metro Punchbowl Area
214 1080 S Beretania Street 801 Active 07-03-2019 $908,000 $895,000 $13,000 Metro Makiki Area Queen Victoria Residences
215 1827 Kalihi Street Active 07-03-2019 $859,000 $854,900 $4,100 Metro Kalihi-lower
216 1288 Kapiolani Boulevard I-1008 Active 07-03-2019 $860,000 $800,000 $60,000 Metro Kakaako Moana Pacific
217 91-311 Hoolu Place Active 07-03-2019 $790,000 $780,000 $10,000 Ewa Plain Ewa Gen Woodbridge
218 469 Ena Road 2905 Active 07-03-2019 $668,000 $648,000 $20,000 Metro Waikiki Waipuna
219 46-098 Konohiki Street 3313 Active 07-03-2019 $648,000 $639,000 $9,000 Kaneohe Lilipuna Poha Kea Point 3
220 2111A Booth Road A Active 07-03-2019 $568,000 $549,000 $19,000 Metro Pauoa Valley
Count Address Status List Date Original Price Current Price Difference Region Neighborhood Building Name
221 3130 Ala Ilima Street 6C Active 07-03-2019 $475,000 $459,000 $16,000 Metro Salt Lake Horizon View Tower
222 400 Hobron Lane 1805 Active 07-03-2019 $415,500 $403,000 $12,500 Metro Waikiki Villa On Eaton Square
223 2233 Ala Wai Boulevard 3C Active 07-03-2019 $395,000 $380,000 $15,000 Metro Waikiki 2233 Ala Wai
224 47-716 Lamaula Place Active 07-02-2019 $1,300,000 $1,150,000 $150,000 Kaneohe Kaalaea
225 1288 Kapiolani Boulevard 1808 Active 07-02-2019 $888,000 $860,000 $28,000 Metro Kakaako Moana Pacific
226 311 Ohua Street 704D Active 07-02-2019 $599,000 $575,000 $24,000 Metro Waikiki Leisure Heritage
227 3075 Ala Poha Place 503 Active 07-02-2019 $565,000 $555,000 $10,000 Metro Salt Lake Country Club Village 2
228 94-1448 Lanikuhana Avenue 397 Active 07-02-2019 $510,000 $505,000 $5,000 Central Mililani Area Nob Hill 3
229 1676 Ala Moana Boulevard 910 Active 07-02-2019 $515,000 $503,000 $12,000 Metro Waikiki Harbor View Plaza
230 92-966 Makakilo Drive 54 Active 07-02-2019 $497,000 $482,000 $15,000 Makakilo Makakilo-upper Palehua Townhouses 2
Count Address Status List Date Original Price Current Price Difference Region Neighborhood Building Name
231 2222 Aloha Drive 803 Active 07-02-2019 $499,000 $479,000 $20,000 Metro Waikiki Coral Terrace Apts
232 2649 Varsity Place 110 Active 07-02-2019 $80,000 $70,000 $10,000 Metro Moiliili Varsity Villa
233 68-001 Laau Paina Place Active 07-01-2019 $2,600,000 $2,195,000 $405,000 North Shore Mokuleia
234 1026 Hunakai Street Active 07-01-2019 $2,050,000 $1,998,000 $52,000 Diamond Head Kahala Area
235 1136 Kahului Street Active 07-01-2019 $1,058,000 $1,038,000 $20,000 Hawaii Kai Kalama Valley
236 91-1117 Kaikohola Street Active 07-01-2019 $900,000 $890,000 $10,000 Ewa Plain Hoakalei-kuapapa
237 3450 Paalea Street Active 07-01-2019 $895,000 $880,000 $15,000 Diamond Head Palolo
238 1173 Mokuhano Street F105 Active 07-01-2019 $925,000 $875,000 $50,000 Hawaii Kai Kalama Valley Kalama Kuu
239 3567 Puuku Makai Drive Active 07-01-2019 $854,000 $853,500 $500 Metro Aliamanu
240 94-334 Kaukalia Street Active 07-01-2019 $669,000 $645,000 $24,000 Central Mililani Area
Count Address Status List Date Original Price Current Price Difference Region Neighborhood Building Name
241 3741 Kanaina Avenue 145 Active 07-01-2019 $545,000 $505,000 $40,000 Diamond Head Diamond Head Diamond Head Sands
242 95-1003 Kaapeha Street 16 Active 07-01-2019 $515,000 $499,900 $15,100 Central Mililani Mauka Northpointe 1
243 98-429 Kaonohi Street 281 Active 07-01-2019 $458,000 $438,000 $20,000 Pearl City Pearlridge Tropicana Village-aiea
244 1251 Heulu Street PH4 Active 07-01-2019 $259,900 $254,900 $5,000 Metro Makiki 1251 Heulu
245 2888 Ala Ilima Street 1408 Active 07-01-2019 $232,000 $226,000 $6,000 Metro Salt Lake Five Regents
246 1650 Ala Moana Boulevard 1907 Active 06-30-2019 $650,000 $625,000 $25,000 Metro Ala Moana Yacht Harbor Towers
247 91-1059 Keoneula Boulevard F5 Active 06-30-2019 $550,000 $545,000 $5,000 Ewa Plain Ocean Pointe Ke Aina Kai Townhomes 10
248 2333 Kapiolani Boulevard 1813 Active 06-30-2019 $549,888 $539,888 $10,000 Metro Kapiolani Marco Polo Apts
249 2318 Waiomao Road 1 Active 06-29-2019 $1,275,000 $1,195,000 $80,000 Diamond Head Palolo
250 91-1400 Halili Street Active 06-29-2019 $1,150,000 $1,099,000 $51,000 Ewa Plain Hoakalei-kuapapa
Count Address Status List Date Original Price Current Price Difference Region Neighborhood Building Name
251 95-1002 HIIALO Street Active 06-29-2019 $1,111,000 $1,065,000 $46,000 Central Mililani Mauka
252 44-1408 Mui Place 2708 Active 06-29-2019 $689,000 $665,000 $24,000 Kaneohe Country Club Yacht Club Terrace
253 92-774 Kuhoho Street Active 06-28-2019 $935,000 $925,000 $10,000 Makakilo Makakilo-kahiwelo
254 1319 Lekeona Street Active 06-28-2019 $923,000 $918,000 $5,000 Kailua Keolu Hills
255 94-1050 Leko Place Active 06-28-2019 $835,000 $815,000 $20,000 Waipahu Waipio Gentry
256 500 Lunalilo Home Road 13G Active 06-28-2019 $670,000 $660,000 $10,000 Hawaii Kai West Marina Esplanade
257 2427 Kuhio Avenue 1403 Active 06-28-2019 $608,000 $599,000 $9,000 Metro Waikiki Pacific Monarch
258 215 N King Street 803 Active 06-28-2019 $550,000 $520,000 $30,000 Metro Dillingham N-a
259 91-1012 Huliau Street 4B Active 06-28-2019 $465,000 $459,000 $6,000 Ewa Plain Ewa Gen Shores At Suncrest B
260 824 Kinau Street 1001 Active 06-28-2019 $229,000 $219,000 $10,000 Metro Punchbowl-lower Ward Kinau
Count Address Status List Date Original Price Current Price Difference Region Neighborhood Building Name
261 1459 Pele Street 211 Active 06-28-2019 $199,000 $195,000 $4,000 Metro Punchbowl-lower Queens Villa
262 1618 Wilhelmina Rise Active 06-27-2019 $855,000 $840,000 $15,000 Diamond Head Wilhelmina
263 91-1013 Kaiuliuli Street Active 06-27-2019 $800,000 $779,000 $21,000 Ewa Plain Hoakalei-ka Makana
264 2120 Lauula Street 1203 Active 06-27-2019 $728,000 $628,000 $100,000 Metro Waikiki The Ritz-carlton Residences Twr 2 - 383
265 2987 Kalakaua Avenue 102 Active 06-27-2019 $639,000 $599,000 $40,000 Diamond Head Diamond Head 2987 Kalakaua
266 60 N Beretania Street 1809 Active 06-27-2019 $519,000 $510,000 $9,000 Metro Chinatown Honolulu Tower
267 95-1050 Makaikai Street 8G Active 06-27-2019 $398,000 $395,000 $3,000 Central Mililani Mauka Olaloa Iii
268 85-175 Farrington Highway C107 Active 06-27-2019 $170,000 $165,000 $5,000 Leeward Waianae Makaha Surfside
269 46-305 Ikiiki Street Active 06-26-2019 $1,200,000 $1,150,000 $50,000 Kaneohe Alii Bluffs
270 988 Halekauwila Street 3908 Active 06-26-2019 $1,028,000 $969,000 $59,000 Metro Kakaako 988 Halekauwila
Count Address Status List Date Original Price Current Price Difference Region Neighborhood Building Name
271 51-529 Kamehameha Highway 2 Active 06-26-2019 $910,000 $899,000 $11,000 Kaneohe Kaaawa Makaua Shores
272 91-1001 Keaunui Drive 380 Active 06-26-2019 $659,000 $645,000 $14,000 Ewa Plain Ewa Gen Laulani
273 201 Ohua Avenue T1-1602 Active 06-26-2019 $575,000 $545,000 $30,000 Metro Waikiki Waikiki Banyan
274 95-1093 Koolani Drive 272 Active 06-26-2019 $540,000 $530,000 $10,000 Central Mililani Mauka Havens Of Ii Vistas Ii Ph5
275 255 Beach Walk 22 Active 06-26-2019 $460,000 $449,000 $11,000 Metro Waikiki Regency On Beachwalk
276 92-1242 Palahia Street T206 Active 06-26-2019 $440,000 $435,000 $5,000 Makakilo Makakilo-upper Westview At Makakilo Hts
277 2421 Tusitala Street 2302 Active 06-26-2019 $430,000 $409,000 $21,000 Metro Waikiki Waikiki Townhouse
278 1720 Poki Street 212 Active 06-26-2019 $310,000 $299,000 $11,000 Metro Makiki Area Hale Poki
279 94-125 Pahu Street 17 Active 06-26-2019 $128,000 $99,900 $28,100 Waipahu Waipahu-lower
280 469 Ena Road 3206 Active 06-25-2019 $669,000 $598,000 $71,000 Metro Waikiki Waipuna
Count Address Status List Date Original Price Current Price Difference Region Neighborhood Building Name
281 1515 Nuuanu Avenue 551 Active 06-25-2019 $449,000 $435,000 $14,000 Metro Downtown Queen Emma Gardens
282 3225 Ala Ilima Street 3225/3 Active 06-25-2019 $415,000 $399,500 $15,500 Metro Salt Lake Tropicana Manor-moanalua
283 3370 Salt Lake Boulevard 308 Active 06-25-2019 $379,900 $369,900 $10,000 Metro Aliamanu Top Of The Hill
284 1519 Nuuanu Avenue 1843 Active 06-25-2019 $375,000 $355,000 $20,000 Metro Downtown Queen Emma Gardens
285 87-206 Helelua Street 2 Active 06-25-2019 $224,900 $219,000 $5,900 Leeward Maili Puu Heleakala
286 3663 Woodlawn Drive Active 06-24-2019 $1,899,000 $1,750,000 $149,000 Metro Manoa-woodlawn
287 7777 Kalohelani Place Active 06-24-2019 $1,225,000 $1,195,000 $30,000 Hawaii Kai Queens Gate
288 302 Kealahou Street Active 06-24-2019 $1,129,000 $1,099,000 $30,000 Hawaii Kai Laulima
289 1080 Luapele Drive AIEA Active 06-24-2019 $895,000 $862,000 $33,000 Pearl City Halawa
290 98-518 Kiliohu Loop 12 Active 06-24-2019 $815,000 $799,000 $16,000 Pearl City Newtown
Count Address Status List Date Original Price Current Price Difference Region Neighborhood Building Name
291 725 Kapiolani Boulevard 2202 Active 06-24-2019 $670,000 $645,000 $25,000 Metro Kakaako Imperial Plaza
292 95-1032 Ainamakua Drive H Active 06-24-2019 $597,500 $585,000 $12,500 Central Mililani Mauka Kumelewai Court 2
293 201 Ohua Avenue 1803 Active 06-24-2019 $602,000 $579,000 $23,000 Metro Waikiki Waikiki Banyan
294 750 Kaheka Street 1507 Active 06-24-2019 $525,000 $515,000 $10,000 Metro Holiday Mart Kapiolani Belaire
295 2121 Ala Wai Boulevard 705 Active 06-24-2019 $514,000 $509,000 $5,000 Metro Waikiki 2121 Ala Wai
296 727 University Avenue 302 Active 06-24-2019 $365,000 $347,000 $18,000 Metro Moiliili 727 University
297 1120 Hassinger Street 205 Active 06-24-2019 $270,000 $265,000 $5,000 Metro Makiki Area Hokulani Apts
298 1630 Makiki Street A103 Active 06-24-2019 $275,000 $260,000 $15,000 Metro Makiki Area Punahou Terrace
299 85-933 Bayview Street 416 Active 06-24-2019 $143,000 $125,000 $18,000 Leeward Waianae Pokai Bay Beach Cabanas
300 1560 Thurston Avenue 1203 Active 06-24-2019 $90,000 $89,000 $1,000 Metro Punchbowl Area Makikilani Plaza
Count Address Status List Date Original Price Current Price Difference Region Neighborhood Building Name
301 7156 Hawaii Kai Drive 210 Active 06-23-2019 $660,000 $649,000 $11,000 Hawaii Kai West Marina Lalea At Hawaii Kai 3
302 1239 Kokea Street D301 Active 06-23-2019 $425,000 $375,000 $50,000 Metro Kapalama Kokea Gardens
303 59-023 Holawa Street B Active 06-22-2019 $2,500,000 $2,350,000 $150,000 North Shore Sunset Area
304 1556 Laumaile Street Active 06-22-2019 $1,500,000 $1,295,000 $205,000 Metro Kalihi-upper
305 4300 Waialae Avenue A1801 Active 06-22-2019 $585,000 $559,000 $26,000 Diamond Head Waialae Nui Vly Kahala Towers
306 242 Kaalawai Place Active 06-21-2019 $4,390,000 $4,100,000 $290,000 Diamond Head Diamond Head
307 1715 Laumaile Street Active 06-21-2019 $1,200,000 $1,198,000 $2,000 Metro Kalihi-upper
308 56-446 Kamehameha Highway 402 Active 06-21-2019 $855,000 $829,000 $26,000 North Shore Kahuku
309 56-448 Kamehameha Highway 302 Active 06-21-2019 $855,000 $829,000 $26,000 North Shore Kahuku
310 91-1026 Hookaahea Street Active 06-21-2019 $825,000 $799,000 $26,000 Ewa Plain Ewa Gen Prescott
Count Address Status List Date Original Price Current Price Difference Region Neighborhood Building Name
311 56-452 Kamehameha Highway 201 Active 06-21-2019 $825,000 $799,000 $26,000 North Shore Kahuku
312 91-130 Puhikani Place Active 06-21-2019 $665,000 $650,000 $15,000 Ewa Plain Ewa Gen Sun Terra
313 1684 Ala Moana Boulevard 952 Active 06-21-2019 $449,000 $430,000 $19,000 Metro Waikiki Ala Wai Terrace
314 94-979 Kauolu Place 913 Active 06-21-2019 $379,000 $374,990 $4,010 Waipahu Waipahu-lower Plantation Town Apartments
315 410 Atkinson Drive 1621 Active 06-21-2019 $275,000 $265,000 $10,000 Metro Ala Moana Ala Moana Hotel Condo
316 932 Lawelawe Street Active 06-20-2019 $1,374,900 $1,350,000 $24,900 Diamond Head Aina Haina Area
317 56-452 Kamehameha Highway 202 Active 06-20-2019 $855,000 $829,000 $26,000 North Shore Kahuku
318 56-458 Kamehameha Highway 101 Active 06-20-2019 $825,000 $799,000 $26,000 North Shore Kahuku
319 92-322 Palaulau Place 74 Active 06-20-2019 $745,000 $735,000 $10,000 Makakilo Makakilo-anuhea
320 91-1001 Keaunui Drive 225 Active 06-20-2019 $635,000 $615,000 $20,000 Ewa Plain Ewa Gen Laulani-trades Laulani Vi Ph 2
Count Address Status List Date Original Price Current Price Difference Region Neighborhood Building Name
321 45-180 Mahalani Place 5 Active 06-20-2019 $685,000 $615,000 $70,000 Kaneohe Government Kauhale Beach Cove
322 4300 Waialae Avenue B806 Active 06-20-2019 $579,000 $567,000 $12,000 Diamond Head Waialae Nui Vly Kahala Towers
323 47-119 Mapele Way Active 06-19-2019 $1,850,000 $1,800,000 $50,000 Kaneohe Waihee
324 1213 Akipola Street Active 06-19-2019 $1,470,000 $1,420,000 $50,000 Kailua Kaopa
325 444 Lunalilo Home Road 125 Active 06-19-2019 $799,000 $779,000 $20,000 Hawaii Kai West Marina Kaimala Marina
326 2355 Ala Wai Boulevard 301 Active 06-19-2019 $465,000 $450,000 $15,000 Metro Waikiki Ala Wai Palms
327 2115 Ala Wai Boulevard 803 Active 06-19-2019 $357,000 $349,000 $8,000 Metro Waikiki Hale Moani
328 725 Kapiolani Boulevard 2902 Active 06-18-2019 $688,000 $628,000 $60,000 Metro Kakaako Imperial Plaza
329 94-602 Lumiauau Street R204 Active 06-18-2019 $460,000 $450,000 $10,000 Waipahu Waikele Highlands At Waikele
330 400 Hobron Lane 2006 Active 06-18-2019 $323,000 $320,000 $3,000 Metro Waikiki Villa On Eaton Square
Count Address Status List Date Original Price Current Price Difference Region Neighborhood Building Name
331 715 Umi Street 3C Active 06-18-2019 $189,000 $179,900 $9,100 Metro Kapalama Hale Umi
332 2240 Kuhio Avenue 1804 Active 06-18-2019 $175,000 $165,000 $10,000 Metro Waikiki Royal Kuhio
333 235 Liliuokalani Avenue 127 Active 06-18-2019 $98,000 $89,850 $8,150 Metro Waikiki Kon Tiki Hotel Annex
334 2578 Pacific Hts Road Active 06-17-2019 $1,718,000 $1,625,000 $93,000 Metro Pacific Heights
335 1098 Kuekue Street Active 06-17-2019 $1,638,000 $1,579,000 $59,000 Hawaii Kai Kamilo Nui
336 68-663 Hoomana Place Active 06-17-2019 $1,300,000 $1,250,000 $50,000 North Shore Mokuleia
337 3366 Kaimuki Avenue Active 06-17-2019 $1,100,000 $1,085,000 $15,000 Diamond Head Kaimuki
338 600 Queen Street 3109 Active 06-17-2019 $1,149,000 $1,075,000 $74,000 Metro Kakaako Keola Lai
339 1650 Ala Moana Boulevard 3105 Active 06-17-2019 $838,000 $809,000 $29,000 Metro Ala Moana Yacht Harbor Towers
340 95-314 Lonomea Street Active 06-17-2019 $819,000 $799,000 $20,000 Central Mililani Area
Count Address Status List Date Original Price Current Price Difference Region Neighborhood Building Name
341 555 University Avenue 900 Active 06-17-2019 $698,000 $689,000 $9,000 Metro Kapiolani Ala Wai Plaza Skyrise
342 1020 Aoloa Place 302A Active 06-17-2019 $640,000 $625,000 $15,000 Kailua Kailua Town Windward Cove
343 725 Kapiolani Boulevard 3105 Active 06-17-2019 $650,000 $620,000 $30,000 Metro Kakaako Imperial Plaza
344 747 Kinau Street 16 Active 06-17-2019 $369,999 $359,999 $10,000 Metro Kapio-kinau-ward Crown Kinau
345 51-636 Kamehameha Highway 526 Active 06-17-2019 $360,000 $339,500 $20,500 Kaneohe Kaaawa Makaua Village
346 2120 Lauula Street 2005 Active 06-16-2019 $1,650,000 $1,600,000 $50,000 Metro Waikiki The Ritz-carlton Residences - 383 Kalaim
347 3387 Kamaaina Drive Active 06-15-2019 $1,988,000 $1,890,000 $98,000 Metro Dowsett
348 51-519 Kamehameha Highway Active 06-15-2019 $928,808 $898,808 $30,000 Kaneohe Kaaawa
349 1212 Nuuanu Avenue 1805 Active 06-15-2019 $645,000 $625,000 $20,000 Metro Chinatown Honolulu Park Place
350 87-2093 Pakeke Street Active 06-15-2019 $549,500 $530,000 $19,500 Leeward Maili Wailana At Sea Country
Count Address Status List Date Original Price Current Price Difference Region Neighborhood Building Name
351 91-1008 Waimomona Place Active 06-15-2019 $524,900 $499,000 $25,900 Ewa Plain Ewa Gen Soda Creek
352 92-681 Makakilo Drive 38 Active 06-15-2019 $468,000 $458,000 $10,000 Makakilo Makakilo-upper Makakilo Gardens 1
353 53-567 Kamehameha Highway 303 Active 06-15-2019 $259,500 $239,000 $20,500 Kaneohe Punaluu Pats At Punaluu
354 2243 Round Top Drive Active 06-14-2019 $1,725,000 $1,685,000 $40,000 Metro Makiki Heights
355 142 Boyd Lane Active 06-14-2019 $988,000 $950,000 $38,000 Metro Pauoa Valley
356 988 Halekauwila Street 3309 Active 06-14-2019 $999,000 $950,000 $49,000 Metro Kakaako 988 Halekauwila
357 91-1326 Hoopio Street Active 06-14-2019 $725,000 $685,000 $40,000 Ewa Plain Ewa Villages
358 469 Ena Road 501 Active 06-14-2019 $695,000 $675,000 $20,000 Metro Waikiki Waipuna
359 2120 Kahaha Street Active 06-14-2019 $665,000 $625,000 $40,000 Metro Kalihi-lower
360 47-712 Hui Kelu Street 1805 Active 06-14-2019 $599,900 $575,000 $24,900 Kaneohe Temple Valley Club View Gardens 2
Count Address Status List Date Original Price Current Price Difference Region Neighborhood Building Name
361 98-873 Iho Place A Active 06-14-2019 $508,800 $506,000 $2,800 Pearl City Pearlridge Ridgeway C
362 400 Hobron Lane 2103 Active 06-14-2019 $449,000 $429,000 $20,000 Metro Waikiki Villa On Eaton Square
363 400 Hobron Lane 1812 Active 06-14-2019 $449,000 $429,000 $20,000 Metro Waikiki Villa On Eaton Square
364 400 Hobron Lane 1109 Active 06-14-2019 $419,000 $399,000 $20,000 Metro Waikiki Villa On Eaton Square
365 1226 Alexander Street 607 Active 06-14-2019 $430,000 $398,000 $32,000 Metro Moiliili Alexander Towers
366 2211 Ala Wai Boulevard 1414 Active 06-14-2019 $325,000 $319,500 $5,500 Metro Waikiki Aloha Lani
367 901 Prospect Street 105 Active 06-14-2019 $260,000 $245,000 $15,000 Metro Punchbowl Area 901 Prospect
368 2452 Tusitala Street 2010 Active 06-14-2019 $270,000 $235,900 $34,100 Metro Waikiki Waikiki Lanais
369 46-002 Nana Place Active 06-13-2019 $1,995,000 $1,775,000 $220,000 Kaneohe Alii Shores
370 92-104 Waialii Place O-414 Active 06-13-2019 $1,438,000 $1,280,000 $158,000 Ewa Plain Ko Olina Beachvillas@ko Olina
Count Address Status List Date Original Price Current Price Difference Region Neighborhood Building Name
371 5126 Keikilani Circle Active 06-13-2019 $995,000 $950,000 $45,000 Diamond Head Aina Haina Area
372 54-290 Kawaipuna Place Active 06-13-2019 $949,500 $788,888 $160,612 Kaneohe Hauula
373 94-446 Kapakapa Way Active 06-13-2019 $789,000 $750,000 $39,000 Central Mililani Area
374 94-103 Poohuku Way 59 Active 06-13-2019 $710,000 $680,000 $30,000 Waipahu Royal Kunia
375 7000 Hawaii Kai Drive 3711 Active 06-13-2019 $639,000 $619,000 $20,000 Hawaii Kai West Marina Hale Ka Lae
376 1143 Kakala Street 308 Active 06-13-2019 $600,000 $555,000 $45,000 Ewa Plain Kapolei-mehana-pulewa Pulewa At Mehana
377 431 Nahua Street 202 Active 06-13-2019 $498,800 $493,800 $5,000 Metro Waikiki Palms Inc
378 222 Kaiulani Avenue PH4 Active 06-13-2019 $498,000 $450,000 $48,000 Metro Waikiki 222 Kaiulani Apts
379 1717 Mott Smith Drive 808 Active 06-13-2019 $419,800 $409,800 $10,000 Metro Makiki Area Mott-smith Laniloa
380 1031 Maunaihi Place 607 Active 06-13-2019 $384,000 $364,000 $20,000 Metro Punchbowl Area Maunaihi Terrace
Count Address Status List Date Original Price Current Price Difference Region Neighborhood Building Name
381 425 Ena Road 207A Active 06-13-2019 $95,000 $90,000 $5,000 Metro Waikiki Kalia
382 95-856 Ukuwai Street Active 06-12-2019 $1,150,000 $1,087,000 $63,000 Central Mililani Mauka
383 561A Kawainui Street Active 06-12-2019 $780,000 $710,000 $70,000 Kailua Coconut Grove
384 383 Kalaimoku Street 2212 Active 06-12-2019 $658,000 $650,000 $8,000 Metro Waikiki The Ritz-carlton Residences - 383 Kalaim
385 95-1321 Wikao Street 54 Active 06-12-2019 $599,000 $598,500 $500 Central Launani Valley
386 47-669 Melekula Road 3 Active 06-12-2019 $510,000 $489,900 $20,100 Kaneohe Ahuimanu Area Nenehiwa Gardens
387 555 Hahaione Street 12D Active 06-12-2019 $409,000 $399,900 $9,100 Hawaii Kai Hahaione-lower Commodore
388 1548 Liholiho Street 303 Active 06-12-2019 $397,500 $389,000 $8,500 Metro Makiki Area Wilder At Piikoi
389 53-549 Kamehameha Highway 205 Active 06-12-2019 $75,000 $69,000 $6,000 Kaneohe Punaluu Hanohano Hale
390 2709 Kaaipu Avenue Active 06-11-2019 $1,300,000 $1,200,000 $100,000 Metro Manoa Area
Count Address Status List Date Original Price Current Price Difference Region Neighborhood Building Name
391 1521 Kalaniwai Place 57 Active 06-11-2019 $1,138,800 $1,118,000 $20,800 Diamond Head Kalani Iki Kalani Iki Estates
392 1521 Kalaniwai Place 57 Active 06-11-2019 $1,138,800 $1,118,000 $20,800 Diamond Head Kalani Iki Kalani Iki Estates
393 91-1208 Kuanoo Street Active 06-11-2019 $955,000 $947,000 $8,000 Ewa Plain Ewa Gen Haleakea
394 45-141A Kokokahi Place Active 06-11-2019 $925,000 $899,000 $26,000 Kaneohe Kokokahi
395 92-831 Makakilo Drive 62 Active 06-11-2019 $675,000 $663,900 $11,100 Makakilo Makakilo-upper Watercolors At Makakilo
396 92-774 Paakai Street Active 06-11-2019 $585,000 $565,000 $20,000 Ewa Plain Nanakai Gardens
397 92-1524 Aliinui Drive 2402 Active 06-11-2019 $560,000 $550,000 $10,000 Ewa Plain Ko Olina Ko Olina Hillside Villas
398 87-1049 Huamoa Street Active 06-11-2019 $549,900 $535,000 $14,900 Leeward Maili Sea-pookela
399 1777 Ala Moana Boulevard 1517 Active 06-11-2019 $557,000 $525,000 $32,000 Metro Waikiki Ilikai Apt Bldg
400 1400 Pensacola Street 502 Active 06-11-2019 $469,000 $459,000 $10,000 Metro Punchbowl Area Barclay
Count Address Status List Date Original Price Current Price Difference Region Neighborhood Building Name
401 1690 Ala Moana Boulevard 605 Active 06-11-2019 $427,000 $399,000 $28,000 Metro Waikiki Big Surf
402 51-636 Kamehameha Highway 421 Active 06-11-2019 $425,000 $395,000 $30,000 Kaneohe Kaaawa Makaua Village
403 2415 Ala Wai Boulevard 601 Active 06-11-2019 $410,000 $349,000 $61,000 Metro Waikiki Waikiki Skyliner
404 4999 Kahala Avenue 265 Active 06-11-2019 $95,000 $86,000 $9,000 Diamond Head Waialae G-c Kahala Beach
405 44-452 Kaneohe Bay Drive Active 06-10-2019 $1,599,000 $1,499,000 $100,000 Kaneohe Country Club
406 902 Prospect Street Active 06-10-2019 $1,290,000 $1,250,000 $40,000 Metro Punchbowl Area
407 356-C Kaelepulu Drive C Active 06-10-2019 $1,275,000 $1,250,000 $25,000 Kailua Bluestone Bluestone
408 54-309D Kamehameha Highway D-2 Active 06-10-2019 $1,040,000 $998,000 $42,000 Kaneohe Hauula
409 54-285 Hauula Homestead Road Active 06-10-2019 $1,075,000 $950,000 $125,000 Kaneohe Hauula
410 1860 Ala Moana Boulevard PH2003 Active 06-10-2019 $889,000 $885,000 $4,000 Metro Waikiki Wailana At Waikiki
Count Address Status List Date Original Price Current Price Difference Region Neighborhood Building Name
411 2421 Tusitala Street 303 Active 06-10-2019 $345,000 $330,000 $15,000 Metro Waikiki Seaside Towers
412 5333 Likini Street 1308 Active 06-10-2019 $299,000 $289,000 $10,000 Metro Salt Lake Plaza Landmark
413 95-1022 Hololea Street Active 06-09-2019 $1,075,000 $1,045,000 $30,000 Central Mililani Mauka
414 91-1107 Waikapuna Street Active 06-09-2019 $980,000 $970,000 $10,000 Ewa Plain Hoakalei-ka Makana
415 94-320 Keaoopua Place Active 06-09-2019 $795,000 $775,000 $20,000 Central Mililani Area
416 1212 Nuuanu Avenue 2705 Active 06-09-2019 $650,000 $625,000 $25,000 Metro Chinatown Honolulu Park Place
417 95-797 Wikao Street B103 Active 06-09-2019 $455,000 $433,000 $22,000 Central Launani Valley Streamside @ Launani Vly 1
418 87-176 Maipalaoa Road H20 Active 06-09-2019 $385,000 $380,000 $5,000 Leeward Maili Maili Beach Place
419 87-176 Maipalaoa Road H19 Active 06-09-2019 $385,000 $380,000 $5,000 Leeward Maili Maili Beach Place
420 1288 Kapiolani Boulevard I-3908 Active 06-08-2019 $1,295,000 $1,245,000 $50,000 Metro Kakaako Moana Pacific
Count Address Status List Date Original Price Current Price Difference Region Neighborhood Building Name
421 34 Dowsett Avenue A Active 06-08-2019 $1,500,000 $1,200,000 $300,000 Metro Dowsett
422 988 Halekauwila Streets 3806 Active 06-08-2019 $1,188,000 $1,169,000 $19,000 Metro Kakaako 988 Halekauwila
423 1212 Halona Street Active 06-08-2019 $850,000 $750,000 $100,000 Metro Kapalama
424 2889 Pacific Hts Road Active 06-07-2019 $1,548,000 $1,499,000 $49,000 Metro Pacific Heights
425 1649A 10th Avenue Active 06-07-2019 $1,250,000 $1,195,000 $55,000 Diamond Head Palolo
426 383 Kalaimoku Street 1010 Active 06-07-2019 $1,050,000 $999,999 $50,001 Metro Waikiki The Ritz-carlton Residences - 383 Kalaim
427 988 Halekauwila Street 2310 Active 06-07-2019 $1,049,000 $969,000 $80,000 Metro Kakaako 988 Halekauwila
428 1 Keahole Place 2604 Active 06-07-2019 $925,000 $895,500 $29,500 Hawaii Kai West Marina Kalele Kai
429 87-1042 Apuupuu Road Active 06-07-2019 $920,000 $889,000 $31,000 Leeward Maili
430 59-610 Kamehameha Highway Active 06-07-2019 $895,000 $885,000 $10,000 North Shore Sunset Area
Count Address Status List Date Original Price Current Price Difference Region Neighborhood Building Name
431 91-1191 Kaileolea Drive Active 06-07-2019 $690,000 $670,000 $20,000 Ewa Plain Ocean Pointe
432 92-1071 Painiu Place Active 06-07-2019 $644,888 $599,888 $45,000 Makakilo Makakilo-upper
433 1425 Punahou Street 404 Active 06-07-2019 $599,000 $550,000 $49,000 Metro Punahou 1425 Punahou
434 1736 Wilhelmina Rise Active 06-06-2019 $1,349,000 $1,288,000 $61,000 Diamond Head Wilhelmina
435 1418 Makiki Street A Active 06-06-2019 $725,000 $705,000 $20,000 Metro Makiki Area Makiki Crescent
436 829 Nanakai Place Active 06-06-2019 $725,000 $675,000 $50,000 Pearl City Pearl City-upper
437 6770 Hawaii Kai Drive 402 Active 06-06-2019 $675,000 $648,000 $27,000 Hawaii Kai Hahaione-lower Plaza Hawaii Kai
438 430 Kaiolu Street 704 Active 06-06-2019 $418,950 $399,500 $19,450 Metro Waikiki Kaiolu Sunrise
439 225 Queen Street 23E Active 06-06-2019 $389,000 $375,000 $14,000 Metro Downtown Harbor Square
440 87561 Farrington Highway 112 Active 06-06-2019 $399,000 $369,000 $30,000 Leeward Maili Maili Cove
Count Address Status List Date Original Price Current Price Difference Region Neighborhood Building Name
441 1513 Spreckels Street A1 Active 06-06-2019 $318,000 $299,880 $18,120 Metro Punahou Punahou Surf
442 1034 Kealaolu Avenue Active 06-05-2019 $3,500,000 $3,395,000 $105,000 Diamond Head Kahala Area
443 176 Aikahi Loop Active 06-05-2019 $1,175,000 $1,150,000 $25,000 Kailua Aikahi Park
444 6227 Kawaihae Place C102 Active 06-05-2019 $775,000 $739,000 $36,000 Hawaii Kai West Marina Villa Marina
445 Active 06-05-2019 $599,000 $579,000 $20,000 Metro Salt Lake Country Club Plaza
446 5090 Likini Street 1605 Active 06-05-2019 $595,000 $568,000 $27,000 Metro Salt Lake Country Club Plaza
447 1015 Aoloa Place 351 Active 06-05-2019 $518,000 $495,000 $23,000 Kailua Kailua Town Poinciana Manor
448 1441 Victoria Street 601 Active 06-05-2019 $485,000 $459,000 $26,000 Metro Punchbowl Area Victoria Plaza
449 1515 Ward Avenue 205 Active 06-05-2019 $475,000 $435,000 $40,000 Metro Punchbowl Area Sky Tower Apts
450 3865 Pukalani Place Active 06-04-2019 $1,438,888 $1,288,000 $150,888 Diamond Head Wilhelmina
Count Address Status List Date Original Price Current Price Difference Region Neighborhood Building Name
451 45-237 Kokokahi Place Active 06-04-2019 $1,125,000 $1,079,000 $46,000 Kaneohe Kokokahi
452 988 Halekauwila Street 3209 Active 06-04-2019 $1,099,000 $975,000 $124,000 Metro Kakaako 988 Halekauwila
453 988 Halekauwila Street 2409 Active 06-04-2019 $1,045,000 $925,000 $120,000 Metro Kakaako 988 Halekauwila
454 179 Kahako Street Active 06-04-2019 $955,000 $925,000 $30,000 Kailua Kailua Bluffs
455 46-1002 Emepela Way 25A Active 06-04-2019 $625,000 $610,000 $15,000 Kaneohe Windward Estates Haiku Point 2
456 1645 ALA WAI Boulevard 1203 Active 06-04-2019 $599,000 $589,000 $10,000 Metro Waikiki Marina Towers
457 201 Ohua Avenue 1103-Tower I Active 06-04-2019 $610,000 $510,000 $100,000 Metro Waikiki Waikiki Banyan
458 1848 Kahakai Drive 2203 Active 06-04-2019 $468,000 $450,000 $18,000 Metro Ala Moana Summer Palace
459 350 Aoloa Street B218 Active 06-04-2019 $450,000 $430,000 $20,000 Kailua Kailua Town Koolau Vista
460 1323 Makiki Street A106 Active 06-04-2019 $328,000 $274,000 $54,000 Metro Makiki Area Maile Terrace
Count Address Status List Date Original Price Current Price Difference Region Neighborhood Building Name
461 2712 Pali Highway Active 06-03-2019 $2,999,999 $2,888,000 $111,999 Metro Nuuanu Area
462 98-161 Aiea Kai Way Active 06-03-2019 $2,500,000 $2,395,000 $105,000 Pearl City Aiea Area
463 383 Kalaimoku Street 1416 Active 06-03-2019 $1,649,000 $1,619,000 $30,000 Metro Waikiki The Ritz-carlton Residences - 383 Kalaim
464 41-046 Hihimanu Street Active 06-03-2019 $1,600,000 $1,450,000 $150,000 Kailua Waimanalo
465 1 Keahole Place 2601 Active 06-03-2019 $1,400,000 $1,200,000 $200,000 Hawaii Kai West Marina Kalele Kai
466 1200 Queen Emma Street 1801 Active 06-03-2019 $840,000 $829,999 $10,001 Metro Downtown Capitol Place
467 47-171 Iuiu Street Active 06-03-2019 $850,000 $820,000 $30,000 Kaneohe Lulani Ocean
468 91-6591 Kapolei Parkway Active 06-03-2019 $722,000 $665,000 $57,000 Ewa Plain Ocean Pointe
469 990 Ala Nanala Street 23A Active 06-03-2019 $625,000 $598,500 $26,500 Metro Salt Lake Franklin Towers
470 1001 Wilder Avenue 1001 Active 06-03-2019 $595,000 $580,000 $15,000 Metro Punchbowl Area 1001 Wilder
Count Address Status List Date Original Price Current Price Difference Region Neighborhood Building Name
471 1550 Wilder Avenue A911 Active 06-03-2019 $220,000 $210,000 $10,000 Metro Makiki Area Punahou Gardens Apts
472 44-140 Mui Place Apt 3 Active 06-02-2019 $699,000 $650,000 $49,000 Kaneohe Country Club Yacht Club Terrace
473 1088 Bishop Street 203 Active 06-02-2019 $209,000 $199,000 $10,000 Metro Downtown Executive Centre
474 2009 Makiki Street A Active 06-01-2019 $1,400,000 $1,370,000 $30,000 Metro Ualakaa
475 1350 Ala Moana Boulevard 2003 Active 06-01-2019 $1,050,000 $999,000 $51,000 Metro Kakaako 1350 Ala Moana
476 2207 Apoepoe Street Active 06-01-2019 $675,000 $650,000 $25,000 Pearl City Pacific Palisades
477 47-4612 Hui Iwa Street 2 Active 06-01-2019 $615,000 $585,000 $30,000 Kaneohe Temple Valley Kahalemanu
478 2033 Nuuanu Avenue 18B Active 06-01-2019 $575,000 $559,000 $16,000 Metro Nuuanu-lower 2033 Nuuanu
479 95-1050 Makaikai Street 30E Active 06-01-2019 $350,000 $320,000 $30,000 Central Mililani Mauka Olaloa 1
480 2877 Kalakaua Avenue 102 Active 06-01-2019 $329,000 $289,000 $40,000 Diamond Head Diamond Head Sans Souci Inc
Count Address Status List Date Original Price Current Price Difference Region Neighborhood Building Name
481 1388 Ala Moana Boulevard 1305 Active 05-31-2019 $1,899,000 $1,845,000 $54,000 Metro Ala Moana Park Lane
482 114 Kokololio Place Active 05-31-2019 $1,750,000 $1,698,000 $52,000 Diamond Head Hawaii Loa Ridge
483 1338 Dominis Street Active 05-31-2019 $1,285,000 $1,225,000 $60,000 Metro Makiki Area
484 98-391 Puaalii Street Active 05-31-2019 $979,900 $949,900 $30,000 Pearl City Pearlridge
485 1650 Ala Moana Boulevard 2907 Active 05-31-2019 $949,000 $870,000 $79,000 Metro Ala Moana Yacht Harbor Towers
486 213 Kawaihae Street E5 Active 05-31-2019 $775,000 $749,000 $26,000 Hawaii Kai West Marina Gateway Peninsula
487 1198 Mona Street Active 05-31-2019 $748,000 $738,000 $10,000 Diamond Head Aina Haina Area
488 269 Kawaihae Street A104 Active 05-31-2019 $795,000 $730,000 $65,000 Hawaii Kai West Marina Villa Marina
489 91-6221 Kapolei Parkway 17 Active 05-31-2019 $670,000 $660,000 $10,000 Ewa Plain Ewa Gen Parkside Parkside By Gentry I
490 1539 Kaminaka Drive Active 05-30-2019 $1,950,000 $1,615,600 $334,400 Diamond Head St. Louis
Count Address Status List Date Original Price Current Price Difference Region Neighborhood Building Name
491 1321 Alewa Drive Active 05-30-2019 $1,495,000 $1,395,000 $100,000 Metro Alewa Heights
492 53-227 Kamehameha Highway Active 05-30-2019 $1,378,888 $1,348,888 $30,000 Kaneohe Punaluu
493 92-698 Welo Street Active 05-30-2019 $899,000 $879,000 $20,000 Makakilo Makakilo-kahiwelo
494 1747 Hookupa Street Active 05-30-2019 $890,000 $849,000 $41,000 Pearl City Pearl City-upper
495 1 Keahole Place 2211 Active 05-30-2019 $769,999 $745,000 $24,999 Hawaii Kai West Marina Kalele Kai
496 322 Aoloa Street 406 Active 05-30-2019 $530,000 $499,000 $31,000 Kailua Kailua Town Windward Passage
497 1655 Makaloa Street 707 Active 05-30-2019 $314,000 $309,000 $5,000 Metro Holiday Mart Kapiolani Manor
498 1001 Queen Street 2702 Active 05-29-2019 $1,750,000 $1,650,000 $100,000 Metro Kakaako Ae'o
499 509 Halela Street Active 05-29-2019 $974,900 $899,500 $75,400 Kailua Coconut Grove
500 2115 10th Avenue 2115 Active 05-29-2019 $868,000 $795,000 $73,000 Diamond Head Palolo
Count Address Status List Date Original Price Current Price Difference Region Neighborhood Building Name
501 469 Ena Road 2804 Active 05-29-2019 $655,000 $599,000 $56,000 Metro Waikiki Waipuna
502 201 Ohua Avenue 2009- Tower 1 Active 05-29-2019 $588,000 $530,000 $58,000 Metro Waikiki Waikiki Banyan
503 738 Palani Avenue 401 Active 05-29-2019 $435,000 $410,000 $25,000 Metro Kapahulu Palani Vista
504 901 Prospect Street 205 Active 05-29-2019 $335,000 $305,000 $30,000 Metro Punchbowl Area 901 Prospect
505 3021 Lono Place Active 05-28-2019 $1,780,000 $1,698,000 $82,000 Metro Manoa Area
506 1350 Ala Moana Boulevard PH7 Active 05-28-2019 $1,255,000 $1,150,000 $105,000 Metro Kakaako 1350 Ala Moana
507 871 Leighton Street Active 05-28-2019 $1,085,000 $1,033,000 $52,000 Diamond Head Aina Haina Area
508 94-1056 Lumi Street Active 05-28-2019 $975,000 $930,000 $45,000 Waipahu Crestview
509 45-118 Waikalua Road Active 05-28-2019 $720,000 $675,000 $45,000 Kaneohe Halepuu
510 46-051 Konohiki Street 3755 Active 05-28-2019 $660,000 $620,000 $40,000 Kaneohe Lilipuna Poha Kea Point 4
Count Address Status List Date Original Price Current Price Difference Region Neighborhood Building Name
511 411 Hobron Lane 2014 Active 05-28-2019 $558,750 $557,950 $800 Metro Waikiki Chateau Waikiki
512 2444 Tusitala Street 104 Active 05-28-2019 $209,000 $202,500 $6,500 Metro Waikiki Ainahau Gardens
513 85-175 Farrington Highway B28 Active 05-28-2019 $10,000 $9,900 $100 Leeward Waianae Makaha Surfside
514 85-175 Farrington Highway B11 Active 05-28-2019 $10,000 $9,900 $100 Leeward Waianae Makaha Surfside
515 85-175 Farrington Highway B59 Active 05-28-2019 $10,000 $9,900 $100 Leeward Waianae Makaha Surfside
516 4018 Maunaloa Avenue Active 05-27-2019 $1,200,000 $1,150,000 $50,000 Diamond Head Kaimuki
517 95-225 Hoani Place 45 Active 05-27-2019 $790,000 $774,000 $16,000 Central Mililani Mauka
518 92-1504 Aliinui Drive 702 Active 05-27-2019 $585,000 $574,900 $10,100 Ewa Plain Ko Olina Ko Olina Hillside Villas
519 1288 kapiolani Boulevard 3802 Active 05-26-2019 $768,000 $750,000 $18,000 Metro Kakaako Moana Pacific
520 1309 Wilder Avenue 1102 Active 05-26-2019 $520,000 $499,900 $20,100 Metro Makiki Area Bellevue Towers
Count Address Status List Date Original Price Current Price Difference Region Neighborhood Building Name
521 1001 Queen Street 2801 Active 05-25-2019 $2,030,000 $1,860,000 $170,000 Metro Kakaako Ae'o
522 4585 Aukai Avenue Active 05-24-2019 $3,399,000 $3,299,000 $100,000 Diamond Head Kahala Area
523 3618 Trousseau Street Active 05-24-2019 $987,000 $977,000 $10,000 Diamond Head Kapahulu
524 45-476 Kamehameha Highway Active 05-24-2019 $825,000 $815,000 $10,000 Kaneohe Hale Kou
525 86-204 Kawili Street Active 05-24-2019 $749,750 $699,750 $50,000 Leeward Lualualei
526 250 Ohua Avenue 10G Active 05-24-2019 $568,000 $529,000 $39,000 Metro Waikiki 250 Ohua
527 2525 Date Street 4205 Active 05-24-2019 $305,000 $299,000 $6,000 Metro Kapiolani Regency Tower
528 3138 Waialae Avenue 118 Active 05-24-2019 $334,900 $244,900 $90,000 Diamond Head St. Louis Regency Park
529 400 Hobron Lane 2908 Active 05-24-2019 $220,000 $215,000 $5,000 Metro Waikiki Villa On Eaton Square
530 55-081 Naupaka Street B Active 05-23-2019 $1,360,000 $1,100,000 $260,000 North Shore Laie Laie Oceanview Homes
Count Address Status List Date Original Price Current Price Difference Region Neighborhood Building Name
531 54-133 Honomu Place Active 05-23-2019 $899,000 $815,000 $84,000 Kaneohe Hauula
532 46-049 Aliianela Place 1721 Active 05-23-2019 $678,000 $635,000 $43,000 Kaneohe Puualii Puu Alii 1
533 1600 Ala Moana Boulevard 910 Active 05-23-2019 $628,000 $599,000 $29,000 Metro Ala Moana Yacht Harbor Towers
534 425 South Street 1902 Active 05-23-2019 $575,000 $555,000 $20,000 Metro Kakaako One Waterfront Tower
535 92-1001 Makakilo Drive 51 Active 05-23-2019 $465,000 $439,900 $25,100 Makakilo Makakilo-upper Palehua Gardens
536 1423 Emerson Street 211 Active 05-23-2019 $410,000 $400,000 $10,000 Metro Punchbowl-lower Emerson Court
537 2440 Date Street 305 Active 05-23-2019 $419,000 $399,000 $20,000 Metro Moiliili Terrace Towers
538 85-175 Farrington Highway A207 Active 05-23-2019 $195,000 $188,900 $6,100 Leeward Waianae Makaha Surfside
539 14 Hakumele Place Active 05-22-2019 $1,850,000 $1,775,000 $75,000 Metro Old Pali
540 1212 Nuuanu Avenue 1103 Active 05-22-2019 $610,000 $599,000 $11,000 Metro Chinatown Honolulu Park Place
Count Address Status List Date Original Price Current Price Difference Region Neighborhood Building Name
541 98-501 Koauka Loop A-1705 Active 05-22-2019 $525,000 $498,000 $27,000 Pearl City Pearlridge Park At Pearlridge
542 761 Sunset Avenue Active 05-21-2019 $1,275,000 $1,125,000 $150,000 Diamond Head Kaimuki
543 1650 Ala Moana Boulevard 4005 Active 05-21-2019 $999,000 $975,000 $24,000 Metro Ala Moana Yacht Harbor Towers
544 91-211 Kauleo Place Active 05-21-2019 $910,000 $899,400 $10,600 Ewa Plain Ewa Gen Woodbridge
545 44-138 Hako Street 4 Active 05-21-2019 $759,000 $742,000 $17,000 Kaneohe Country Club Yacht Club Terrace
546 98-1821 Kaahumanu Street 79B Active 05-21-2019 $559,000 $555,000 $4,000 Pearl City Wailuna Wailuna 2-a
547 84-965 Farrington Highway A701 Active 05-21-2019 $350,000 $295,000 $55,000 Leeward Makaha Makaha Beach Cabanas
548 562 Hunalewa Street Active 05-20-2019 $1,200,000 $1,099,000 $101,000 Diamond Head Kahala-puupanini
549 566 Hunalewa Street Active 05-20-2019 $1,180,000 $1,080,000 $100,000 Diamond Head Kahala-puupanini
550 610 Hunalewa Street Active 05-20-2019 $1,180,000 $999,000 $181,000 Diamond Head Kahala-puupanini
Count Address Status List Date Original Price Current Price Difference Region Neighborhood Building Name
551 1350 Ala Moana Boulevard 1806 Active 05-20-2019 $978,000 $948,000 $30,000 Metro Kakaako 1350 Ala Moana
552 44-126 Mikiola Drive Active 05-20-2019 $969,000 $939,000 $30,000 Kaneohe Mikiola
553 425 South Street 1801 Active 05-20-2019 $850,000 $775,000 $75,000 Metro Kakaako One Waterfront Tower
554 46-051 Konohiki Street 3732 Active 05-20-2019 $720,000 $695,000 $25,000 Kaneohe Lilipuna Poha Kea Point 4-3
555 322 Aoloa Street 304 Active 05-20-2019 $508,000 $489,000 $19,000 Kailua Kailua Town Windward Passage
556 2629 Ahekolo Street Active 05-18-2019 $1,200,000 $1,075,000 $125,000 Metro Pauoa Valley
557 92-1265 Panana Street 20 Active 05-18-2019 $439,000 $425,000 $14,000 Makakilo Makakilo-upper Makakilo Hale 1
558 1122 Kinau Street 1104 Active 05-17-2019 $348,000 $317,000 $31,000 Metro Makiki Area Kaahumanu Plaza
559 2999 Kalakaua Avenue Penthouse Active 05-16-2019 $6,300,000 $5,990,000 $310,000 Diamond Head Diamond Head Tahitienne Inc
560 3625 Sierra Drive Active 05-16-2019 $1,045,000 $995,000 $50,000 Diamond Head Wilhelmina
Count Address Status List Date Original Price Current Price Difference Region Neighborhood Building Name
561 1009 Kapiolani Boulevard 4403 Active 05-16-2019 $990,000 $980,000 $10,000 Metro Kakaako Pacifica Honolulu
562 41-019 Puuone Street Active 05-15-2019 $2,700,000 $2,488,000 $212,000 Kailua Waimanalo
563 1210 Honokahua Street Active 05-15-2019 $1,098,500 $1,058,000 $40,500 Hawaii Kai Kalama Valley
564 6133 Summer Street 6133C Active 05-15-2019 $995,000 $959,000 $36,000 Diamond Head Paiko Lagoon Kuliouou Kai Villa
565 47-414 Ahuimanu Place D Active 05-15-2019 $999,999 $898,000 $101,999 Kaneohe Ahuimanu Area
566 47-7423 Hui Kelu Street 1503 Active 05-15-2019 $695,000 $685,000 $10,000 Kaneohe Temple Valley Kahalemanu
567 411 Hobron Lane 2109 Active 05-15-2019 $498,000 $438,000 $60,000 Metro Waikiki Chateau Waikiki
568 1888 Kalakaua Avenue 1400 Active 05-15-2019 $450,000 $428,000 $22,000 Metro Waikiki Waikiki Landmark
569 2160 Awikiwiki Place Active 05-14-2019 $1,200,000 $1,160,000 $40,000 Pearl City Pacific Palisades
570 2158 Awikiwiki Place Active 05-14-2019 $1,100,000 $1,060,000 $40,000 Pearl City Pacific Palisades
Count Address Status List Date Original Price Current Price Difference Region Neighborhood Building Name
571 91-1416 Halili Street Active 05-14-2019 $948,000 $941,000 $7,000 Ewa Plain Hoakalei-kuapapa
572 99-1230 Halawa Hts Road A Active 05-14-2019 $925,000 $915,000 $10,000 Pearl City Halawa Heights
573 725 Kapiolani Boulevard 618 Active 05-14-2019 $740,000 $699,888 $40,112 Metro Kakaako Imperial Plaza
574 86-227 Moekolu Street Active 05-14-2019 $624,900 $599,000 $25,900 Leeward Lualualei
575 1649 Waikahalulu Lane D23 Active 05-14-2019 $610,000 $575,000 $35,000 Metro Nuuanu-lower Nuuanu Streamside 1
576 222 Kaiulani Avenue PH3 Active 05-14-2019 $565,000 $425,000 $140,000 Metro Waikiki 222 Kaiulani Apts
577 1634 Makiki Street 902 Active 05-14-2019 $438,000 $420,000 $18,000 Metro Makiki Area Consulate
578 841 Ahuwale Street Active 05-13-2019 $1,029,000 $988,000 $41,000 Diamond Head Aina Haina Area
579 1837 Kalakaua Avenue 707 Active 05-13-2019 $715,000 $699,999 $15,001 Metro Waikiki Allure Waikiki
580 217 Prospect Street B5 Active 05-13-2019 $649,000 $619,000 $30,000 Metro Punchbowl Area Dowsett Point
Count Address Status List Date Original Price Current Price Difference Region Neighborhood Building Name
581 3138 Waialae Avenue 906 Active 05-13-2019 $552,500 $539,000 $13,500 Diamond Head St. Louis Regency Park
582 1750 Kalakaua Avenue 3602 Active 05-13-2019 $526,000 $495,000 $31,000 Metro Mccully Century Center
583 1848 Kahakai Drive 907 Active 05-13-2019 $483,000 $477,000 $6,000 Metro Ala Moana Summer Palace
584 2421 Tusitala Street 904 Active 05-13-2019 $379,000 $349,000 $30,000 Metro Waikiki Waikiki Townhouse
585 1660 Kalakaua Avenue B307 Active 05-13-2019 $340,000 $332,000 $8,000 Metro Pawaa Waikiki Parkway Apts
586 1420 Victoria Street 1604 Active 05-13-2019 $250,000 $220,000 $30,000 Metro Punchbowl Area Victoria Towers
587 221 Kilani Avenue 6 Active 05-12-2019 $785,000 $760,000 $25,000 Central Wahiawa Area Hale Ilima
588 221 Kilani Avenue 6 Active 05-12-2019 $785,000 $760,000 $25,000 Central Wahiawa Area Hale Ilima
589 1035 Alewa Drive 1 Active 05-11-2019 $1,250,000 $1,185,000 $65,000 Metro Alewa Heights
590 92-572 Akaula Street Active 05-11-2019 $950,000 $875,000 $75,000 Makakilo Makakilo-lower
Count Address Status List Date Original Price Current Price Difference Region Neighborhood Building Name
591 410 Atkinson Drive 2116 Active 05-11-2019 $290,000 $280,000 $10,000 Metro Ala Moana Ala Moana Hotel Condo
592 84-740 Kili Drive 1122 Active 05-11-2019 $199,000 $194,000 $5,000 Leeward Makaha Makaha Valley Towers
593 59-497 Ke Waena Road B Active 05-10-2019 $4,300,000 $3,990,000 $310,000 North Shore Sunset Area
594 61-133 Tutu Street Active 05-10-2019 $1,750,000 $1,699,000 $51,000 North Shore Kawailoa-north Shore
595 1330 Ala Moana Boulevard 606 Active 05-10-2019 $1,180,000 $1,100,000 $80,000 Metro Kakaako Nauru Tower
596 410 Atkinson Drive 3018 Active 05-10-2019 $297,000 $279,900 $17,100 Metro Ala Moana Ala Moana Hotel Condo
597 888 Mililani Street PH-4 Active 05-10-2019 $287,000 $197,000 $90,000 Metro Downtown Kendall Building
598 555 Hahaione Street PH-4 Active 05-09-2019 $1,150,000 $998,000 $152,000 Hawaii Kai Hahaione-lower Commodore
599 625 Iolani Avenue A704 Active 05-09-2019 $469,000 $424,900 $44,100 Metro Punchbowl-lower Park Tower
600 1561 Pensacola Street 1702 Active 05-09-2019 $425,900 $412,000 $13,900 Metro Makiki Area Makiki Plaza
Count Address Status List Date Original Price Current Price Difference Region Neighborhood Building Name
601 95-510 Wikao Street J102 Active 05-09-2019 $410,000 $399,000 $11,000 Central Launani Valley Ridge At Launani Valley
602 1778 Ala Moana Boulevard 1406 Active 05-09-2019 $259,000 $229,000 $30,000 Metro Waikiki Discovery Bay
603 383 Kalaimoku Street E3306 (Tower 1) Active 05-08-2019 $3,150,000 $2,990,000 $160,000 Metro Waikiki The Ritz-carlton Residences - 383 Kalaim
604 1288 Kapiolani Boulevard 3408 Active 05-08-2019 $988,000 $958,000 $30,000 Metro Kakaako Moana Pacific
605 7007 Hawaii Kai Drive E21 Active 05-08-2019 $880,000 $825,000 $55,000 Hawaii Kai West Marina Mawaena Kai 1-2-3
606 92-1033 Koio Drive A M15-1 Active 05-08-2019 $625,000 $610,000 $15,000 Ewa Plain Ko Olina Ko Olina Kai Golf Estates
607 60 N Beretania Street 2005 Active 05-08-2019 $410,000 $399,000 $11,000 Metro Chinatown Honolulu Tower
608 775 Mcneill Street 321B Active 05-08-2019 $368,000 $357,900 $10,100 Metro Kalihi Area Holiday Apts
609 84-740 Kili Drive 1030 Active 05-08-2019 $209,000 $189,000 $20,000 Leeward Makaha Makaha Valley Towers
610 66-84 Waialua Beach Road A Active 05-07-2019 $1,031,000 $999,000 $32,000 North Shore Paalaakai
Count Address Status List Date Original Price Current Price Difference Region Neighborhood Building Name
611 92-1230 Olani Street 80-4 Active 05-06-2019 $1,050,000 $950,000 $100,000 Ewa Plain Ko Olina Coconut Plantation
612 45-036 Waikalua Road A Active 05-06-2019 $929,000 $885,000 $44,000 Kaneohe Waikalua
613 92-592 Welo Street Active 05-06-2019 $850,000 $835,000 $15,000 Makakilo Makakilo-kahiwelo
614 Active 05-06-2019 $609,000 $599,000 $10,000 Metro Waikiki Luana Waikiki
615 1600 Ala Moana Boulevard 504 Active 05-06-2019 $590,000 $560,000 $30,000 Metro Ala Moana Yacht Harbor Towers
616 240 Makee Road 2B Active 05-06-2019 $395,000 $390,000 $5,000 Metro Waikiki Parkview
617 99-1263 Aiea Heights Drive Active 05-04-2019 $1,450,000 $1,350,000 $100,000 Pearl City Aiea Heights
618 92-111 Opuakii Way Active 05-03-2019 $1,550,000 $1,487,000 $63,000 Makakilo Makakilo-kumulani
619 1525 Amelia Street A Active 05-03-2019 $1,400,000 $1,295,000 $105,000 Metro Kalihi-lower
620 205 Maluniu Avenue Active 05-03-2019 $950,000 $922,500 $27,500 Kailua Coconut Grove
Count Address Status List Date Original Price Current Price Difference Region Neighborhood Building Name
621 91-1085 Kaupea Street Active 05-03-2019 $650,000 $635,000 $15,000 Ewa Plain Hawaiian Homes Land
622 91-1205 Kanela Street M-36 Active 05-03-2019 $620,000 $590,000 $30,000 Ewa Plain Ewa Gen Montecito-tuscany
623 801 South Street 2808 Active 05-03-2019 $569,000 $559,000 $10,000 Metro Kakaako 801 South St
624 2525 Date Street 4201 Active 05-03-2019 $335,000 $319,000 $16,000 Metro Kapiolani Regency Tower
625 1700 Ala Moana Boulevard 2103 Active 05-03-2019 $210,000 $198,000 $12,000 Metro Waikiki Waikiki Marina Condominium
626 1860 Ala Moana Boulevard 910 Active 05-03-2019 $198,000 $175,000 $23,000 Metro Waikiki Wailana At Waikiki
627 2049 Oswald Street Active 05-02-2019 $1,350,000 $1,298,000 $52,000 Diamond Head St. Louis
628 1055 Mowai Street Active 05-02-2019 $949,000 $935,000 $14,000 Kailua Keolu Hills
629 92-1230 Hunekai Street Active 05-02-2019 $840,000 $775,000 $65,000 Makakilo Makakilo-palehua Hgts
630 91-1339 Hoopio Street Active 05-02-2019 $645,590 $630,590 $15,000 Ewa Plain Ewa Villages
Count Address Status List Date Original Price Current Price Difference Region Neighborhood Building Name
631 4567 Aukai Avenue Active 05-01-2019 $4,980,000 $4,780,000 $200,000 Diamond Head Kahala Area
632 112 Mahealani Place Active 05-01-2019 $1,980,000 $1,850,000 $130,000 Kailua Kailua Estates
633 415 South Street 3101 Active 05-01-2019 $895,000 $875,000 $20,000 Metro Kakaako One Waterfront Tower
634 300 Wai Nani Way 2111 Active 05-01-2019 $738,000 $688,000 $50,000 Metro Waikiki Liliuokalani Gardens
635 876 Curtis Street 1106 Active 05-01-2019 $660,000 $599,000 $61,000 Metro Kakaako Royal Capitol Plaza
636 1634 Makiki Street 501 Active 05-01-2019 $458,000 $438,000 $20,000 Metro Makiki Area Consulate
637 1610 Kanunu Street 1404 Active 05-01-2019 $362,888 $349,000 $13,888 Metro Pawaa Kapiolani Towers
638 87-561 Farrington Highway 311 Active 05-01-2019 $377,000 $337,000 $40,000 Leeward Maili Maili Cove
639 1717 mott smith Drive 1909 Active 05-01-2019 $359,000 $288,000 $71,000 Metro Makiki Area Mott-smith Laniloa
640 1700 Ala Moana Boulevard 3204 Active 05-01-2019 $286,000 $269,000 $17,000 Metro Waikiki Waikiki Marina Condominium
Count Address Status List Date Original Price Current Price Difference Region Neighborhood Building Name
641 1888 Kalakaua Avenue 800 Active 05-01-2019 $269,000 $259,000 $10,000 Metro Waikiki Waikiki Landmark
642 229 Paoakalani Avenue 1810 Active 05-01-2019 $349,900 $239,900 $110,000 Metro Waikiki Waikiki Sunset
643 1863 Kaioo Drive 303 Active 05-01-2019 $52,900 $34,900 $18,000 Metro Waikiki Kaioo Terrace
644 95-217 Aua Place Active 04-30-2019 $1,042,000 $992,000 $50,000 Central Mililani Area
645 2500 Kalakaua Avenue 2203 Active 04-30-2019 $1,100,000 $950,000 $150,000 Metro Waikiki Foster Tower
646 45-691 Kamehameha Highway 313 Active 04-30-2019 $315,000 $282,500 $32,500 Kaneohe Puohala Village Manai Hale
647 383 Kalaimoku Street E3401 Active 04-29-2019 $4,390,000 $4,350,000 $40,000 Metro Waikiki The Ritz-carlton Residences - 383 Kalaim
648 166 Nenue Street Active 04-29-2019 $1,479,000 $1,398,000 $81,000 Diamond Head Aina Haina Area
649 888 Kapiolani Boulevard 4208 Active 04-29-2019 $1,299,999 $1,250,000 $49,999 Metro Kakaako Symphony Honolulu
650 46-290 Nahewai Street Active 04-29-2019 $955,000 $930,000 $25,000 Kaneohe Haiku Knolls
Count Address Status List Date Original Price Current Price Difference Region Neighborhood Building Name
651 44-1735 Laha Street 2105 Active 04-29-2019 $753,000 $743,000 $10,000 Kaneohe Country Club Yacht Club Terrace
652 520 Lunalilo Home Road 8205 Active 04-29-2019 $714,900 $689,000 $25,900 Hawaii Kai West Marina Colony At The Peninsula
653 4300 Waialae Avenue 1406-A Active 04-29-2019 $570,000 $520,000 $50,000 Diamond Head Waialae Nui Vly Kahala Towers
654 750 Amana Street PH 1 Active 04-29-2019 $510,000 $450,000 $60,000 Metro Holiday Mart Holiday Village
655 2415 Ala Wai Boulevard 805 Active 04-29-2019 $360,000 $350,000 $10,000 Metro Waikiki Waikiki Skyliner
656 1042 Ehoeho Avenue 122 Active 04-29-2019 $300,000 $270,000 $30,000 Central Whitmore Village Lalawai Hale
657 223 Saratoga Road 2221 Active 04-28-2019 $825,000 $765,000 $60,000 Metro Waikiki Trump Tower Waikiki
658 1313 Mccully Street Active 04-27-2019 $899,000 $889,000 $10,000 Metro Moiliili
659 469 Portlock Road Active 04-26-2019 $2,295,000 $2,185,000 $110,000 Hawaii Kai Portlock
660 47-302 Iuiu Street Active 04-26-2019 $1,790,000 $1,730,000 $60,000 Kaneohe Lulani Ocean
Count Address Status List Date Original Price Current Price Difference Region Neighborhood Building Name
661 91-1121 Kuanoo Street Active 04-26-2019 $962,000 $940,000 $22,000 Ewa Plain Ewa Gen Haleakea
662 91-253 Lukini Place 34 Active 04-26-2019 $759,000 $715,000 $44,000 Ewa Plain Huelani
663 1139 9th Avenue 1101 Active 04-26-2019 $398,000 $389,000 $9,000 Diamond Head Kaimuki Kaimuki Jade
664 1330 Ala Moana Boulevard 3606 Active 04-25-2019 $1,800,000 $1,690,000 $110,000 Metro Kakaako Nauru Tower
665 256 Aumoe Road Active 04-25-2019 $1,690,000 $1,590,000 $100,000 Kailua Kailua Estates
666 92-7049 Elele Street 54 Active 04-25-2019 $665,000 $640,000 $25,000 Makakilo Makakilo-upper Seascape At Makakilo
667 3230 Ala Ilima Street 604 Active 04-25-2019 $310,000 $289,000 $21,000 Metro Salt Lake Lakeside Coronet
668 410 Atkinson Drive 2328 Active 04-25-2019 $245,000 $228,000 $17,000 Metro Ala Moana Ala Moana Hotel Condo
669 1341 Aalapapa Drive Active 04-24-2019 $2,950,000 $2,700,000 $250,000 Kailua Lanikai
670 600 Ala Moana Boulevard 3902 Active 04-24-2019 $1,220,000 $1,180,000 $40,000 Metro Kakaako The Collection
Count Address Status List Date Original Price Current Price Difference Region Neighborhood Building Name
671 95-1286 Ahoka Street Active 04-24-2019 $1,145,000 $1,099,500 $45,500 Central Mililani Mauka
672 45-055 Lilipuna Road A Active 04-24-2019 $945,000 $890,000 $55,000 Kaneohe Lilipuna
673 444 Nahua Street 1903 Active 04-24-2019 $388,000 $370,000 $18,000 Metro Waikiki 444 Nahua
674 888 Kapiolani Boulevard PH 4405 Active 04-23-2019 $1,888,000 $1,838,000 $50,000 Metro Kakaako Symphony Honolulu
675 2120 Lauula Street 2310 Active 04-23-2019 $1,148,800 $1,080,000 $68,800 Metro Waikiki The Ritz-carlton Residences - 383 Kalaim
676 85-1105 Waianae Valley Road Active 04-23-2019 $803,888 $725,000 $78,888 Leeward Waianae
677 3045 Ala Napuaa Place 1510 Active 04-23-2019 $440,000 $415,000 $25,000 Metro Salt Lake Harbour Ridge
678 1535 Pensacola Street 11 Active 04-23-2019 $299,000 $254,000 $45,000 Metro Makiki Area Village Maluhia
679 53-549 Kamehameha Highway 614 Active 04-23-2019 $120,000 $99,000 $21,000 Kaneohe Punaluu Hanohano Hale
680 77 Karsten Drive 26F Active 04-23-2019 $114,900 $94,900 $20,000 Central Wahiawa Heights Hidden Valley Ests
Count Address Status List Date Original Price Current Price Difference Region Neighborhood Building Name
681 438 Portlock Road Active 04-22-2019 $2,450,000 $2,279,000 $171,000 Hawaii Kai Portlock
682 98-715 Iho Place 4601 Active 04-22-2019 $428,000 $399,000 $29,000 Pearl City Pearlridge Colonnade On Greens
683 445 Seaside Street 4010 Active 04-22-2019 $288,000 $275,000 $13,000 Metro Waikiki Island Colony
684 53-567 Kamehameha Highway 305 Active 04-22-2019 $250,000 $199,000 $51,000 Kaneohe Punaluu Pats At Punaluu
685 2500 Kalakaua Avenue 205 Active 04-20-2019 $500,000 $450,000 $50,000 Metro Waikiki Foster Tower
686 41-1010 Laumilo Street Active 04-19-2019 $4,000,000 $3,750,000 $250,000 Kailua Waimanalo
687 2450 Prince Edward Street 1207A Active 04-19-2019 $265,000 $242,000 $23,000 Metro Waikiki Kuhio Village 2
688 65-200 Poamoho Place Active 04-18-2019 $4,999,998 $4,800,000 $199,998 North Shore Waialua
689 88 Piikoi Street 4507 Active 04-18-2019 $2,450,000 $2,350,000 $100,000 Metro Kakaako Hawaiki Tower
690 1328 Aupupu Street Active 04-18-2019 $1,200,000 $1,175,000 $25,000 Kailua Hillcrest
Count Address Status List Date Original Price Current Price Difference Region Neighborhood Building Name
691 1765 Ala Moana Boulevard 784 Active 04-18-2019 $648,000 $624,000 $24,000 Metro Waikiki Ilikai Marina
692 86-171 Moeha Street Active 04-18-2019 $638,000 $615,000 $23,000 Leeward Lualualei
693 2345 Ala Wai Boulevard 1011 Active 04-18-2019 $334,000 $323,000 $11,000 Metro Waikiki Fairway Villa
694 975 Aalapapa Drive Active 04-17-2019 $2,289,000 $2,250,000 $39,000 Kailua Lanikai
695 411 Hobron Lane 3514 Active 04-17-2019 $379,900 $329,500 $50,400 Metro Waikiki Chateau Waikiki
696 409 Iolani Avenue 403 Active 04-17-2019 $120,000 $75,000 $45,000 Metro Punchbowl-lower Kaneda Courts
697 1296 Kapiolani Boulevard PA-C4047 Active 04-17-2019 $40,000 $35,000 $5,000 Metro Kakaako Moana Pacific
698 91-1482 Halahinano Street Active 04-16-2019 $850,000 $785,000 $65,000 Ewa Plain Kapolei Knolls
699 425 South Street 202 Active 04-16-2019 $668,000 $630,000 $38,000 Metro Kakaako One Waterfront Tower
700 411 Hobron Lane 2001 Active 04-16-2019 $419,000 $399,000 $20,000 Metro Waikiki Chateau Waikiki
Count Address Status List Date Original Price Current Price Difference Region Neighborhood Building Name
701 59-745 Alapio Place Active 04-15-2019 $1,695,000 $1,645,000 $50,000 North Shore Pupukea
702 2500 Kalakaua Avenue 2304 Active 04-15-2019 $1,550,000 $1,549,000 $1,000 Metro Waikiki Foster Tower
703 99-651 Kaulainahee Place Active 04-15-2019 $1,098,000 $1,039,000 $59,000 Pearl City Aiea Heights
704 45-316 Kahiko Street Active 04-15-2019 $848,000 $699,999 $148,001 Kaneohe Hale Kou
705 46-261 Kahuhipa Street A308 Active 04-15-2019 $450,000 $435,000 $15,000 Kaneohe Windward Estates Windward Acres
706 1505 Alexander Street 402 Active 04-15-2019 $438,000 $398,000 $40,000 Metro Punahou Alexander
707 Active 04-15-2019 $205,000 $195,000 $10,000 Metro Waikiki Wailana At Waikiki
708 94-730 Kaaka Street Active 04-14-2019 $788,000 $749,000 $39,000 Waipahu Village Park
709 41-540 Inoaole Street Active 04-13-2019 $730,000 $629,000 $101,000 Kailua Waimanalo
710 223 Saratoga Road 2107 Active 04-12-2019 $1,200,000 $1,150,000 $50,000 Metro Waikiki Trump Tower Waikiki
Count Address Status List Date Original Price Current Price Difference Region Neighborhood Building Name
711 47-285 Waihee Road D Active 04-12-2019 $1,150,000 $998,000 $152,000 Kaneohe Waihee
712 98-005 Kaluamoi Place Active 04-12-2019 $675,000 $599,000 $76,000 Pearl City Waimalu
713 2452 Tusitala Street 2001 Active 04-12-2019 $628,000 $578,000 $50,000 Metro Waikiki Waikiki Lanais
714 2452 Tusitala Street 802 Active 04-12-2019 $280,000 $248,000 $32,000 Metro Waikiki Waikiki Lanais
715 2500 Kalakaua Avenue 1004 Active 04-11-2019 $1,180,000 $948,800 $231,200 Metro Waikiki Foster Tower
716 3910 Likini Street Active 04-11-2019 $850,000 $700,000 $150,000 Metro Aliamanu
717 57-101 Kuilima Drive 23 Active 04-11-2019 $615,000 $595,000 $20,000 North Shore Kuilima Kuilima Ests West
718 4999 Kahala Avenue 103 Active 04-11-2019 $199,000 $129,000 $70,000 Diamond Head Waialae G-c Kahala Beach
719 66 Queen Street 1802 Active 04-10-2019 $739,000 $715,000 $24,000 Metro Downtown Harbor Court
720 1031 Maunaihi Place 508 Active 04-10-2019 $398,000 $388,000 $10,000 Metro Punchbowl Area Maunaihi Terrace
Count Address Status List Date Original Price Current Price Difference Region Neighborhood Building Name
721 1288 Ala Moana Boulevard 32C Active 04-09-2019 $2,650,000 $2,590,000 $60,000 Metro Kakaako Hokua At 1288 Ala Moana
722 759 Moaniala Street Active 04-09-2019 $2,080,000 $1,995,000 $85,000 Diamond Head Hawaii Loa Ridge
723 69 Niuiki Circle Active 04-09-2019 $1,999,999 $1,899,888 $100,111 Diamond Head Niu Beach
724 1627 Hoolaulea Street Active 04-09-2019 $1,588,888 $1,358,000 $230,888 Pearl City Momilani
725 727 Lukepane Streets 203 Active 04-09-2019 $219,900 $159,900 $60,000 Metro Kapahulu Lukepane Hale
726 735 Birch Street Active 04-08-2019 $2,200,000 $1,800,000 $400,000 Metro Ala Moana
727 1177 Queen Street 3203 Active 04-08-2019 $1,100,000 $1,075,000 $25,000 Metro Kakaako Koolani
728 92-831 Makakilo Drive 10 Active 04-08-2019 $694,900 $654,900 $40,000 Makakilo Makakilo-upper Watercolors At Makakilo
729 2410 Cleghorn Street 1404 Active 04-08-2019 $469,000 $450,000 $19,000 Metro Waikiki Waikiki Skytower
730 84-710 Kili Drive 1715 Active 04-08-2019 $226,900 $216,000 $10,900 Leeward Makaha Makaha Valley Towers
Count Address Status List Date Original Price Current Price Difference Region Neighborhood Building Name
731 1750 Kalakaua Avenue 3202 Active 04-08-2019 $170,000 $155,000 $15,000 Metro Mccully Century Center
732 348 Poipu Drive Active 04-07-2019 $2,350,000 $2,150,000 $200,000 Hawaii Kai Triangle
733 46-033 Aliianela Place 1911 Active 04-07-2019 $615,000 $579,000 $36,000 Kaneohe Puualii Puu Alii 1-3a
734 66 Queen Street 3404 Active 04-06-2019 $888,000 $878,000 $10,000 Metro Downtown Harbor Court
735 433 Maono Loop Active 04-05-2019 $2,500,000 $2,400,000 $100,000 Diamond Head Hawaii Loa Ridge
736 520 Lunalilo Home Road 232 Active 04-05-2019 $1,375,000 $1,310,000 $65,000 Hawaii Kai West Marina
737 91-1010 Kaikohola Street Active 04-05-2019 $1,228,000 $1,218,000 $10,000 Ewa Plain Hoakalei-kuapapa
738 421 Olohana Street 2001 Active 04-05-2019 $1,029,000 $997,000 $32,000 Metro Waikiki Lanikea At Waikiki
739 2937 Kalakaua Avenue 45 Active 04-05-2019 $995,000 $895,000 $100,000 Diamond Head Diamond Head Castle Surf Apts
740 44-164 Hako Street 1707 Active 04-05-2019 $710,000 $689,000 $21,000 Kaneohe Country Club Yacht Club Terrace
Count Address Status List Date Original Price Current Price Difference Region Neighborhood Building Name
741 118 Kekaha Place Active 04-04-2019 $3,500,000 $3,198,000 $302,000 Hawaii Kai Triangle
742 55-075 Naupaka Street Active 04-04-2019 $3,100,000 $3,080,000 $20,000 North Shore Laie
743 55-078 Naupaka Street Active 04-04-2019 $2,100,000 $2,080,000 $20,000 North Shore Laie
744 47-147 Kamehameha Highway Active 04-04-2019 $2,000,000 $1,850,000 $150,000 Kaneohe Ahuimanu Area
745 520 Lunalilo Home Road 232 Active 04-04-2019 $1,375,000 $1,310,000 $65,000 Hawaii Kai West Marina Peninsula At Hawaii Kai 1
746 94-809 Waipahu Street Active 04-04-2019 $950,000 $925,000 $25,000 Waipahu Waipahu-lower
747 1296 Kapiolani Boulevard 4208 Active 04-04-2019 $933,000 $889,000 $44,000 Metro Kakaako Moana Pacific
748 431 Nahua Street 1003 Active 04-04-2019 $489,000 $439,000 $50,000 Metro Waikiki Palms Inc
749 440 Seaside Avenue 607 Active 04-04-2019 $399,000 $389,999 $9,001 Metro Waikiki Seaside Suites
750 1470 Dillingham Boulevard A302 Active 04-04-2019 $364,900 $359,900 $5,000 Metro Kalihi Area Bishop Gardens
Count Address Status List Date Original Price Current Price Difference Region Neighborhood Building Name
751 2240 Kuhio Avenue 2305 Active 04-04-2019 $228,000 $218,000 $10,000 Metro Waikiki Royal Kuhio
752 68-469 Crozier Drive Active 04-03-2019 $2,100,000 $1,995,000 $105,000 North Shore Mokuleia
753 607 12th Avenue Active 04-03-2019 $1,225,000 $1,175,000 $50,000 Diamond Head Kaimuki
754 308B Elelupe Road Active 04-03-2019 $990,000 $960,000 $30,000 Diamond Head Kuliouou
755 91-1001 Keaunui Drive 348 Active 04-03-2019 $660,000 $650,000 $10,000 Ewa Plain Ewa Gen Laulani
756 3027 Pualei Circle 208 Active 04-03-2019 $508,000 $499,000 $9,000 Diamond Head Diamond Head Diamond Head Alii Corp
757 430 Keoniana Street 212 Active 04-03-2019 $412,000 $380,000 $32,000 Metro Waikiki Keoni Ana
758 1031 Maunaihi Place 805 Active 04-03-2019 $420,000 $360,000 $60,000 Metro Punchbowl Area Maunaihi Terrace
759 92-1510 Aliinui Drive 1107 Active 04-02-2019 $572,000 $559,000 $13,000 Ewa Plain Ko Olina Ko Olina Hillside Villas
760 2525 Date Street 3801 Active 04-02-2019 $569,000 $558,000 $11,000 Metro Kapiolani Regency Tower
Count Address Status List Date Original Price Current Price Difference Region Neighborhood Building Name
761 1139 Makaiwa Street Active 04-01-2019 $3,500,000 $3,300,000 $200,000 Diamond Head Kahala Area
762 316 Nenue Street Active 04-01-2019 $1,998,000 $1,848,000 $150,000 Diamond Head Aina Haina Area
763 59-668 Kamehameha Highway Unit 2 Active 04-01-2019 $1,650,000 $1,450,000 $200,000 North Shore Sunset Area
764 2556 Kalihi Street Active 04-01-2019 $1,100,000 $1,050,000 $50,000 Metro Kalihi-upper
765 1189 Hind Iuka Drive Active 04-01-2019 $975,000 $939,000 $36,000 Diamond Head Aina Haina Area
766 400 Keawe Street 420 Active 04-01-2019 $732,500 $712,500 $20,000 Metro Kakaako 400 Keawe
767 46-369 Haiku Road F9 Active 04-01-2019 $611,000 $582,000 $29,000 Kaneohe Haiku Plantation Eden At Haiku Woods A
768 92-1492 Aliinui Drive 604 Active 04-01-2019 $530,000 $520,000 $10,000 Ewa Plain Ko Olina Ko Olina Hillside Villas
769 2055 Nuuanu Avenue 602 Active 04-01-2019 $425,000 $399,000 $26,000 Metro Nuuanu-lower Nuuanu Towers
770 320 Liliuokalani Avenue 1002 Active 04-01-2019 $419,000 $395,000 $24,000 Metro Waikiki Monte Vista
Count Address Status List Date Original Price Current Price Difference Region Neighborhood Building Name
771 1650 Ala Moana Boulevard 2803 Active 04-01-2019 $302,000 $245,000 $57,000 Metro Ala Moana Yacht Harbor Towers
772 4999 Kahala Avenue 263 Active 04-01-2019 $118,000 $87,000 $31,000 Diamond Head Waialae G-c Kahala Beach
773 95-222 Loea Place Active 03-31-2019 $1,335,000 $1,250,000 $85,000 Central Mililani Mauka
774 95-1151 Koolani Drive 85 Active 03-30-2019 $463,000 $460,000 $3,000 Central Mililani Mauka Havens Of Ii Vistas Ii Ph1
775 24 Kaiholu Place Active 03-29-2019 $9,390,000 $8,350,000 $1,040,000 Kailua Beachside
776 91-1034 Kaikoele Street Active 03-29-2019 $824,900 $759,900 $65,000 Ewa Plain Ocean Pointe
777 1888 Kalakaua Avenue 705 Active 03-29-2019 $675,000 $669,900 $5,100 Metro Waikiki Waikiki Landmark
778 204 Kapahulu Avenue 604 Active 03-29-2019 $698,000 $619,000 $79,000 Metro Waikiki Makee Ailana
779 417 Nohonani Street 201 Active 03-29-2019 $99,500 $95,000 $4,500 Metro Waikiki Hawaiian King
780 4240 Kaikoo Place Active 03-28-2019 $14,800,000 $12,800,000 $2,000,000 Diamond Head Diamond Head
Count Address Status List Date Original Price Current Price Difference Region Neighborhood Building Name
781 2101 Nuuanu Avenue I1601 Active 03-28-2019 $715,000 $705,000 $10,000 Metro Nuuanu-lower Craigside
782 98-426 Kilinoe Street 311 Active 03-28-2019 $459,000 $445,000 $14,000 Pearl City Newtown Chateau Newtown Vlg 3
783 785 Kinau Street 406 Active 03-28-2019 $245,000 $230,000 $15,000 Metro Kapio-kinau-ward Pacific Manor
784 98-1399B Nola Street 2 Active 03-28-2019 $150,000 $128,000 $22,000 Pearl City Waiau Waiau Gardens Kai B
785 98-1360 A Nola Street 71 Active 03-28-2019 $150,000 $128,000 $22,000 Pearl City Waiau Waiau Gardens Kai B
786 21 Kaiholu Place Active 03-27-2019 $8,880,000 $7,950,000 $930,000 Kailua Beachside
787 2999 Makalei Place Active 03-27-2019 $5,995,000 $5,500,000 $495,000 Diamond Head Diamond Head
788 102 Kaiolino Way Active 03-27-2019 $2,500,000 $2,100,000 $400,000 Kailua Beachside
789 383 Kalaimoku Street 1216 Active 03-27-2019 $1,678,000 $1,640,000 $38,000 Metro Waikiki The Ritz-carlton Residences - 383 Kalaim
790 2500 Kalakaua Avenue 1001 Active 03-27-2019 $1,760,000 $1,595,000 $165,000 Metro Waikiki Foster Tower
Count Address Status List Date Original Price Current Price Difference Region Neighborhood Building Name
791 57-020 Kuilima Drive 117 Active 03-27-2019 $1,250,000 $1,195,000 $55,000 North Shore Kuilima Ocean Villas At Turtle Bay
792 350 Kealahou Street Active 03-27-2019 $995,000 $979,000 $16,000 Hawaii Kai Laulima
793 2500 Kalakaua Avenue 1006 Active 03-27-2019 $462,500 $455,000 $7,500 Metro Waikiki Foster Tower
794 383 Kalaimoku Street 1713 Active 03-26-2019 $735,000 $730,000 $5,000 Metro Waikiki The Ritz-carlton Residences - 383 Kalaim
795 2525 Date Street 2403 Active 03-26-2019 $327,000 $297,000 $30,000 Metro Kapiolani Regency Tower
796 3175 Noela Drive Active 03-25-2019 $9,250,000 $8,750,000 $500,000 Diamond Head Diamond Head
797 85-1383C Waianae Valley Road Active 03-25-2019 $3,500,000 $2,900,000 $600,000 Leeward Waianae
798 88 Piikoi Street 1007 Active 03-25-2019 $1,450,000 $1,188,000 $262,000 Metro Kakaako Hawaiki Tower
799 91-1165 Pekau Street Active 03-25-2019 $770,000 $760,000 $10,000 Ewa Plain Ewa Gen Latitudes
800 913 A Alder Street A Active 03-25-2019 $700,000 $679,000 $21,000 Metro Ala Moana Alder Villa
Count Address Status List Date Original Price Current Price Difference Region Neighborhood Building Name
801 445 Seaside Avenue 1615 Active 03-25-2019 $250,000 $230,000 $20,000 Metro Waikiki Island Colony
802 84-680 Kili Drive 102 Active 03-25-2019 $230,000 $200,000 $30,000 Leeward Makaha Makaha Valley Towers
803 1778 Ala Moana Boulevard 2107 Active 03-24-2019 $260,000 $230,000 $30,000 Metro Waikiki Discovery Bay
804 383 Kalaimoku Street 2003 Active 03-23-2019 $798,000 $745,000 $53,000 Metro Waikiki The Ritz-carlton Residences - 383 Kalaim
805 223 Saratoga Road 1816 Active 03-22-2019 $740,000 $699,000 $41,000 Metro Waikiki Trump Tower Waikiki
806 60 N Beretania Street 2902 Active 03-22-2019 $625,000 $596,000 $29,000 Metro Chinatown Honolulu Tower
807 60 N BERETANIA Street 409 Active 03-22-2019 $510,000 $499,900 $10,100 Metro Chinatown Honolulu Tower
808 1778 Ala Moana Boulevard 2604 Active 03-22-2019 $450,000 $435,000 $15,000 Metro Waikiki Discovery Bay
809 4590 Waikui Street Active 03-21-2019 $1,798,000 $1,748,000 $50,000 Diamond Head Waialae G-c
810 91-1015 Kai Uhu Street Active 03-21-2019 $975,000 $950,000 $25,000 Ewa Plain Ocean Pointe
Count Address Status List Date Original Price Current Price Difference Region Neighborhood Building Name
811 1200 Queen Emma Street 1406 Active 03-21-2019 $858,000 $818,000 $40,000 Metro Downtown Capitol Place
812 725 Kapiolani Boulevard 1704 Active 03-21-2019 $599,000 $579,000 $20,000 Metro Kakaako Imperial Plaza
813 45-315 Lilipuna Road A201 Active 03-21-2019 $364,500 $334,900 $29,600 Kaneohe Puualii Lilipuna
814 2514 Notley Street Active 03-20-2019 $899,000 $799,000 $100,000 Metro Kalihi-lower
815 1057 Matzie Lane Active 03-20-2019 $819,000 $775,000 $44,000 Metro Kapalama
816 2240 Kuhio Avenue 2514 Active 03-20-2019 $264,000 $199,000 $65,000 Metro Waikiki Royal Kuhio
817 59-642 Pupukea Road Active 03-19-2019 $1,750,000 $1,695,000 $55,000 North Shore Pupukea
818 2240 Kuhio Avenue 1307 Active 03-19-2019 $238,000 $169,000 $69,000 Metro Waikiki Royal Kuhio
819 6637 Hawaii Kai Drive Active 03-18-2019 $1,898,000 $1,798,000 $100,000 Hawaii Kai West Marina
820 1837 Kalakaua Avenue 1602 Active 03-18-2019 $830,000 $808,000 $22,000 Metro Waikiki Allure Waikiki
Count Address Status List Date Original Price Current Price Difference Region Neighborhood Building Name
821 1650 Ala Moana Boulevard 709 Active 03-18-2019 $520,000 $500,000 $20,000 Metro Ala Moana Yacht Harbor Towers
822 1551 Ala Wai Boulevard 2906 Active 03-17-2019 $1,550,000 $1,525,000 $25,000 Metro Waikiki The Watermark
823 1403 Makiki Street B804 Active 03-17-2019 $699,000 $649,000 $50,000 Metro Makiki Area Maile Terrace
824 92-104 Waialii Place O-1604 Active 03-15-2019 $1,528,000 $1,428,000 $100,000 Ewa Plain Ko Olina Beachvillas@ko Olina
825 47-446 Lulani Street Active 03-15-2019 $1,500,000 $1,380,000 $120,000 Kaneohe Lulani Ocean
826 92-1001 Aliinui Drive 30A Active 03-15-2019 $869,800 $738,000 $131,800 Ewa Plain Ko Olina Kai Lani
827 51-529 Kamehameha Highway 7 Active 03-15-2019 $699,000 $674,000 $25,000 Kaneohe Kaaawa Makaua Shores
828 92-1524 Aliinui Drive 2408 Active 03-15-2019 $574,900 $564,900 $10,000 Ewa Plain Ko Olina Ko Olina Hillside Villas
829 1260 Richard Lane B514 Active 03-15-2019 $330,000 $320,000 $10,000 Metro Kalihi-lower 1260 Richard Ln
830 777 Karsten Drive 25C Active 03-15-2019 $249,900 $189,900 $60,000 Central Wahiawa Heights Hidden Valley Ests
Count Address Status List Date Original Price Current Price Difference Region Neighborhood Building Name
831 54-049 Hauula Homestead Road Active 03-14-2019 $978,000 $799,000 $179,000 Kaneohe Hauula
832 1778 Ala Moana Boulevard 3414 Active 03-14-2019 $450,000 $385,000 $65,000 Metro Waikiki Discovery Bay
833 11 Niuhi Street Active 03-13-2019 $3,475,000 $3,270,000 $205,000 Diamond Head Wailupe Area
834 59-147 Ke Nui Road Active 03-13-2019 $1,395,000 $1,299,000 $96,000 North Shore Sunset Area
835 229 Paoakalani Avenue 604 Active 03-13-2019 $688,000 $589,500 $98,500 Metro Waikiki Waikiki Sunset
836 320 Liliokalani Avenue 2304 Active 03-13-2019 $520,000 $500,000 $20,000 Metro Waikiki Monte Vista
837 2240 Kuhio Avenue 3205 Active 03-13-2019 $498,000 $419,000 $79,000 Metro Waikiki Royal Kuhio
838 1296 Kapiolani Boulevard 2003 Active 03-12-2019 $925,000 $899,000 $26,000 Metro Kakaako Moana Pacific
839 815 Lopez Lane Active 03-12-2019 $875,000 $765,000 $110,000 Metro Kapalama
840 87-132 Keliikipi Street Active 03-12-2019 $430,000 $419,000 $11,000 Leeward Maili
Count Address Status List Date Original Price Current Price Difference Region Neighborhood Building Name
841 1744 Kamohoalii Street 2 Active 03-12-2019 $379,000 $368,900 $10,100 Metro Kalihi-upper None
842 2182 Round Top Drive Active 03-11-2019 $3,200,000 $2,880,000 $320,000 Metro Makiki Heights
843 59-502 Kamehameha Highway A Active 03-11-2019 $1,349,398 $1,324,000 $25,398 North Shore Sunset Area
844 55-315A Kamehameha Highway Active 03-11-2019 $1,288,000 $1,198,000 $90,000 North Shore Laie
845 99-1159B Aiea Heights Drive Active 03-11-2019 $1,149,000 $1,100,000 $49,000 Pearl City Aiea Heights
846 1114 Punahou Street 2B Active 03-11-2019 $475,000 $449,000 $26,000 Metro Punahou Punahou Regency
847 1235 Kainui Drive Active 03-10-2019 $1,150,000 $950,000 $200,000 Kailua Koolaupoko
848 91-1073 Hanaloa Street Active 03-09-2019 $650,000 $630,000 $20,000 Ewa Plain Ewa Beach
849 4960 Mana Place Active 03-08-2019 $5,950,000 $4,750,000 $1,200,000 Diamond Head Maunalani Heights
850 1268 Ala Aloalo Street Active 03-08-2019 $1,195,000 $1,099,000 $96,000 Metro Salt Lake
Count Address Status List Date Original Price Current Price Difference Region Neighborhood Building Name
851 520 Lunalilo Home Road 7408 Active 03-08-2019 $709,000 $675,900 $33,100 Hawaii Kai West Marina Colony At The Peninsula
852 46-159 Meheanu Loop 3251 Active 03-08-2019 $670,000 $660,000 $10,000 Kaneohe Lilipuna Poha Kea Point 3
853 1019 Maunaihi Place 306 Active 03-08-2019 $425,000 $415,000 $10,000 Metro Punchbowl Area Makiki Cliffs
854 1925 Kalakaua Avenue 1206 Active 03-08-2019 $199,000 $189,000 $10,000 Metro Waikiki Pavilion At Waikiki
855 383 Kalaimoku Street 2410 Active 03-07-2019 $3,488,000 $3,288,000 $200,000 Metro Waikiki The Ritz-carlton Residences - 383 Kalaim
856 1001 Queen Street 2412 Active 03-07-2019 $1,439,000 $1,370,000 $69,000 Metro Kakaako Ae'o
857 5830 Kalanianaole Highway Active 03-07-2019 $988,000 $925,000 $63,000 Diamond Head Niu Valley
858 2453 Pacific Hts Road Active 03-07-2019 $849,000 $769,000 $80,000 Metro Pacific Heights
859 223 Saratoga Road 818 Active 03-07-2019 $399,000 $388,000 $11,000 Metro Waikiki Trump Tower Waikiki
860 1778 Ala Moana Boulevard 2316 Active 03-07-2019 $250,000 $245,000 $5,000 Metro Waikiki Discovery Bay
Count Address Status List Date Original Price Current Price Difference Region Neighborhood Building Name
861 1108 Auahi Street 504 Active 03-06-2019 $1,200,000 $1,050,000 $150,000 Metro Kakaako Anaha - 1108 Auahi
862 134 Kapahulu Avenue 700 Active 03-06-2019 $319,000 $309,000 $10,000 Metro Waikiki Waikiki Grand Hotel
863 134 Kapahulu Avenue 303 Active 03-06-2019 $269,000 $249,000 $20,000 Metro Waikiki Waikiki Grand Hotel
864 41-1005 Laumilo Street Active 03-05-2019 $3,600,000 $3,200,000 $400,000 Kailua Waimanalo
865 2851 Kalawao Street 54 Active 03-05-2019 $2,098,000 $1,988,000 $110,000 Metro Manoa Area Manoa Hillside Estates
866 2117 Keeaumoku Street Active 03-05-2019 $1,680,000 $1,600,000 $80,000 Metro Makiki Heights
867 454 Namahana Street 602 Active 03-05-2019 $155,000 $128,000 $27,000 Metro Waikiki Regency Ala Wai
868 1750 Kalakaua Avenue 1312 Active 03-05-2019 $132,000 $119,800 $12,200 Metro Mccully Century Center
869 988 Kealaolu Avenue Active 03-04-2019 $1,849,888 $1,799,000 $50,888 Diamond Head Kahala Area
870 383 Kalaimoku Street 2509 Active 03-04-2019 $1,495,000 $1,350,000 $145,000 Metro Waikiki The Ritz-carlton Residences - 383 Kalaim
Count Address Status List Date Original Price Current Price Difference Region Neighborhood Building Name
871 1422 Miloiki Street Active 03-04-2019 $988,000 $968,000 $20,000 Hawaii Kai Kamiloiki
872 94-1215 Kahuaina Street Active 03-04-2019 $828,000 $799,000 $29,000 Waipahu Waipahu Triangle
873 91-1171 Kaileolea Drive Active 03-04-2019 $700,000 $635,000 $65,000 Ewa Plain Ocean Pointe
874 824 Kinau Street 504 Active 03-04-2019 $239,900 $220,000 $19,900 Metro Punchbowl-lower Ward Kinau
875 2947 Kalakaua Avenue 705 Active 03-04-2019 $198,000 $193,000 $5,000 Diamond Head Diamond Head Diamond Head Bch Hotel
876 1920 Ala Moana Boulevard 1207 Active 03-04-2019 $116,000 $113,000 $3,000 Metro Waikiki Inn On The Park
877 1660 Kalakaua Avenue 311 Active 03-02-2019 $267,000 $265,000 $2,000 Metro Pawaa Waikiki Parkway Apts
878 664 Moaniala Street Active 03-01-2019 $1,988,000 $1,888,000 $100,000 Diamond Head Hawaii Loa Ridge
879 1296 Kapiolani Boulevard 2506 Active 03-01-2019 $955,000 $895,000 $60,000 Metro Kakaako Moana Pacific
880 2525 Date Street 805 Active 03-01-2019 $365,000 $329,000 $36,000 Metro Kapiolani Regency Tower
Count Address Status List Date Original Price Current Price Difference Region Neighborhood Building Name
881 409 Kailua Road 7-310 Active 02-28-2019 $1,028,000 $968,000 $60,000 Kailua Kailua Town Ka Malanai@kailua
882 431 Nahua Street 404 Active 02-28-2019 $530,000 $450,000 $80,000 Metro Waikiki Palms Inc
883 2845 Waialae Avenue 520 Active 02-28-2019 $345,000 $330,000 $15,000 Metro Moiliili Waialae Pl
884 2120 Lauula Street 3506 Active 02-27-2019 $6,400,000 $5,500,000 $900,000 Metro Waikiki The Ritz-carlton Residences Twr 2 - 383
885 1001 Queen Street 3008 Active 02-27-2019 $1,082,000 $1,010,000 $72,000 Metro Kakaako Ae'o
886 801 S King Street 4004 Active 02-27-2019 $685,000 $675,000 $10,000 Metro Kakaako One Archer Lane
887 1750 Kalakaua Avenue 2111 Active 02-27-2019 $480,000 $425,000 $55,000 Metro Mccully Century Center
888 1031 Maunaihi Place 401 Active 02-27-2019 $430,000 $405,000 $25,000 Metro Punchbowl Area Maunaihi Terrace
889 410 Atkinson Drive 747 Active 02-27-2019 $200,000 $199,000 $1,000 Metro Ala Moana Ala Moana Hotel Condo
890 383 Kalaimoku Street 1401 Active 02-26-2019 $870,000 $779,000 $91,000 Metro Waikiki The Ritz-carlton Residences - 383 Kalaim
Count Address Status List Date Original Price Current Price Difference Region Neighborhood Building Name
891 425 South Street 803 Active 02-26-2019 $615,000 $590,000 $25,000 Metro Kakaako One Waterfront Tower
892 1904 Vancouver Drive Active 02-25-2019 $4,100,000 $4,000,000 $100,000 Metro Manoa-lower
893 738 21st Avenue Active 02-25-2019 $2,085,000 $1,896,000 $189,000 Diamond Head Kaimuki
894 1524 Pensacola Street 113 Active 02-25-2019 $432,000 $399,000 $33,000 Metro Makiki Area Pensacola Gardens
895 929 Kealaolu Place Active 02-22-2019 $5,275,000 $4,950,000 $325,000 Diamond Head Kahala Area
896 383 Kalaimoku Street 1908 Active 02-22-2019 $1,110,000 $1,050,000 $60,000 Metro Waikiki The Ritz-carlton Residences - 383 Kalaim
897 92-1001 Aliinui Drive 5A Active 02-22-2019 $720,000 $695,000 $25,000 Ewa Plain Ko Olina Kai Lani
898 2781 Kapiolani Boulevard 702 Active 02-22-2019 $720,000 $690,000 $30,000 Metro Kapiolani Kaimuki Parkside
899 1050 Kinau Street 606 Active 02-22-2019 $325,000 $318,800 $6,200 Metro Makiki Area Makini At Kinau
900 1001 Queen Street 2013 Active 02-20-2019 $855,000 $812,000 $43,000 Metro Kakaako Ae'o
Count Address Status List Date Original Price Current Price Difference Region Neighborhood Building Name
901 4738 Kahala Avenue Active 02-19-2019 $3,500,000 $3,200,000 $300,000 Diamond Head Kahala Area
902 2339 Waiomao Road Active 02-19-2019 $769,000 $649,000 $120,000 Diamond Head Palolo
903 775 Mcneill Street 218 Active 02-18-2019 $395,000 $385,000 $10,000 Metro Kalihi Area Holiday Apts
904 3311 Beach Road Active 02-15-2019 $14,000,000 $12,995,000 $1,005,000 Diamond Head Diamond Head
905 41-727 Kumuhau Street H Active 02-15-2019 $1,600,000 $1,000,000 $600,000 Kailua Waimanalo
906 56-335 Leleuli Street Active 02-15-2019 $675,000 $630,000 $45,000 North Shore Kahuku
907 152 N Kalaheo Avenue Active 02-14-2019 $1,680,000 $1,570,000 $110,000 Kailua Beachside
908 84-575 Kili Drive 66 Active 02-14-2019 $649,900 $647,400 $2,500 Leeward Makaha Oceanview Estates
909 92-104 Waialii Place O-711 Active 02-13-2019 $1,375,000 $1,295,000 $80,000 Ewa Plain Ko Olina Beachvillas@ko Olina
910 340 Manono Street 2 Active 02-13-2019 $895,000 $825,000 $70,000 Kailua Coconut Grove
Count Address Status List Date Original Price Current Price Difference Region Neighborhood Building Name
911 415 South Street 1701 Active 02-13-2019 $837,000 $799,000 $38,000 Metro Kakaako One Waterfront Tower
912 2120 Lauula Street 2905 Active 02-12-2019 $2,650,000 $1,980,000 $670,000 Metro Waikiki The Ritz-carlton Residences Twr 2 - 383
913 600 Ala Moana Boulevard 4306 Active 02-12-2019 $1,150,000 $999,999 $150,001 Metro Kakaako The Collection
914 2240 Kuhio Avenue 1808 Active 02-12-2019 $220,000 $200,000 $20,000 Metro Waikiki Royal Kuhio
915 383 Kalaimoku Street D1112 (Tower 2) Active 02-11-2019 $1,150,000 $1,050,000 $100,000 Metro Waikiki The Ritz-carlton Residences - 383 Kalaim
916 1001 Queen Street 3905 Active 02-11-2019 $1,195,000 $979,000 $216,000 Metro Kakaako Ae'o
917 3585 Pinao Street 11 Active 02-11-2019 $979,500 $939,500 $40,000 Metro Manoa-upper
918 54-065 Kamehameha Highway Active 02-11-2019 $725,000 $700,000 $25,000 Kaneohe Hauula
919 1108 Auahi Street 807 Active 02-10-2019 $1,888,000 $1,770,000 $118,000 Metro Kakaako Anaha - 1108 Auahi
920 45-326 Ka Hanahou Circle Active 02-10-2019 $1,650,000 $1,599,000 $51,000 Kaneohe Kahanahou
Count Address Status List Date Original Price Current Price Difference Region Neighborhood Building Name
921 1314 Kalakaua Avenue 1513 Active 02-10-2019 $959,000 $925,000 $34,000 Metro Makiki Area One Kalakaua
922 444 Nahua Street 2107 Active 02-10-2019 $535,000 $499,000 $36,000 Metro Waikiki 444 Nahua
923 431 Nahua Street 903 Active 02-09-2019 $558,000 $538,000 $20,000 Metro Waikiki Palms Inc
924 583 Kamoku Street 3007 Active 02-08-2019 $759,000 $699,808 $59,192 Metro Kapiolani Royal Iolani
925 400 Hobron Lane 2211 Active 02-08-2019 $480,000 $445,000 $35,000 Metro Waikiki Villa On Eaton Square
926 383 Kalaimoku Street 1606 Active 02-07-2019 $790,000 $615,000 $175,000 Metro Waikiki The Ritz-carlton Residences - 383 Kalaim
927 398 Puuikena Drive Active 02-06-2019 $3,980,000 $3,480,000 $500,000 Diamond Head Hawaii Loa Ridge
928 221 Forest Ridge Way Active 02-06-2019 $2,800,000 $2,500,000 $300,000 Metro Tantalus
929 223 Saratoga Road 1814 Active 02-06-2019 $695,000 $549,000 $146,000 Metro Waikiki Trump Tower Waikiki
930 1189 Waimanu Street 3403 Active 02-05-2019 $1,290,000 $1,250,000 $40,000 Metro Kakaako Waihonua
Count Address Status List Date Original Price Current Price Difference Region Neighborhood Building Name
931 2100 Date Street 302 Active 02-05-2019 $211,000 $179,000 $32,000 Metro Moiliili Twenty One Hundred
932 92-1113 Makamai Loop Active 02-04-2019 $659,000 $619,000 $40,000 Makakilo Makakilo-upper
933 2222 Citron Street 1801 Active 02-02-2019 $560,000 $525,000 $35,000 Metro Moiliili Parkside Tower
934 84-680 Kili Drive 1103 Active 02-02-2019 $215,000 $198,000 $17,000 Leeward Makaha Makaha Valley Towers
935 425 Ena Road 508B Active 02-02-2019 $120,000 $99,000 $21,000 Metro Waikiki Kalia
936 1118 Ala Moana Boulevard 2602 Active 02-01-2019 $3,690,000 $3,450,000 $240,000 Metro Kakaako Waiea - 1118 Ala Moana
937 86-058 Alta Street Active 02-01-2019 $799,000 $779,000 $20,000 Leeward Lualualei
938 383 kalaimoku Street 1515 Active 01-31-2019 $1,300,000 $1,280,000 $20,000 Metro Waikiki The Ritz-carlton Residences - 383 Kalaim
939 1001 Queen Street 3607 Active 01-31-2019 $1,018,000 $928,000 $90,000 Metro Kakaako Ae'o
940 757 Kinalau Place 1703 Active 01-31-2019 $415,000 $389,999 $25,001 Metro Punchbowl-lower Hale O Pumehana
Count Address Status List Date Original Price Current Price Difference Region Neighborhood Building Name
941 300 Wai Nani Way 1917 Active 01-31-2019 $199,500 $130,000 $69,500 Metro Waikiki Liliuokalani Gardens
942 1288 Ala Moana Boulevard PH 38I Active 01-30-2019 $4,380,000 $3,690,000 $690,000 Metro Kakaako Hokua At 1288 Ala Moana
943 1296 Kapiolani Boulevard E2803 Active 01-30-2019 $998,000 $920,000 $78,000 Metro Kakaako Moana Pacific
944 1717 Mott Smith Drive 1908 Active 01-30-2019 $499,000 $459,900 $39,100 Metro Makiki Area Mott-smith Laniloa
945 245 Palaoa Place Active 01-29-2019 $5,495,000 $5,248,000 $247,000 Diamond Head Diamond Head
946 1001 Queen Street 3406 Active 01-29-2019 $1,580,000 $1,495,000 $85,000 Metro Kakaako Ae'o
947 6750 Hawaii Kai Drive 601 Active 01-29-2019 $680,000 $660,000 $20,000 Hawaii Kai Hahaione-lower Naniwa Gardens
948 56-155B Kamehameha Highway Active 01-28-2019 $3,750,000 $2,980,000 $770,000 North Shore Malaekahana
949 5396 Poola Street Active 01-26-2019 $1,680,000 $1,500,000 $180,000 Diamond Head Waialae Iki
950 3473A Paty Drive 243A Active 01-25-2019 $4,978,000 $4,388,000 $590,000 Metro Manoa-woodlawn
Count Address Status List Date Original Price Current Price Difference Region Neighborhood Building Name
951 42-331 Old Kalanianaole Road Active 01-25-2019 $1,695,000 $1,595,000 $100,000 Kailua Govt-ag
952 445 Seaside Avenue 1716 Active 01-25-2019 $270,000 $245,000 $25,000 Metro Waikiki Island Colony
953 2888 Ala Ilima Street 2002 Active 01-24-2019 $218,000 $209,000 $9,000 Metro Salt Lake Five Regents
954 51-328A Kamehameha Highway Active 01-23-2019 $699,000 $625,000 $74,000 Kaneohe Kaaawa
955 581 kamoku Streets EWA-1504 Active 01-22-2019 $583,999 $549,000 $34,999 Metro Kapiolani Royal Iolani
956 1700 Ala Moana Boulevard 2404 Active 01-21-2019 $239,500 $219,500 $20,000 Metro Waikiki Waikiki Marina Condominium
957 4028A Keanu Street Active 01-18-2019 $1,724,000 $1,595,000 $129,000 Diamond Head Wilhelmina
958 1001 Queen Street 2302 Active 01-18-2019 $1,700,000 $1,588,000 $112,000 Metro Kakaako Ae'o
959 94-510 Lumiaina Street C201 Active 01-18-2019 $425,000 $420,000 $5,000 Waipahu Waikele Viewpointe At Waikele
960 2240 Kuhio Avenue 1402 Active 01-18-2019 $169,500 $159,500 $10,000 Metro Waikiki Royal Kuhio
Count Address Status List Date Original Price Current Price Difference Region Neighborhood Building Name
961 1105 Kaimoku Place Active 01-16-2019 $15,000,000 $14,500,000 $500,000 Diamond Head Kai Nani
962 555 Hahaione Street 14D Active 01-16-2019 $450,000 $430,000 $20,000 Hawaii Kai Hahaione-lower Commodore
963 1221 Victoria Street 902 Active 01-15-2019 $199,000 $190,000 $9,000 Metro Makiki Area Admiral Thomas Apts
964 4250 Sierra Drive A Active 01-14-2019 $1,495,000 $1,428,000 $67,000 Diamond Head Wilhelmina
965 2156 Aumakua Street Active 01-14-2019 $795,000 $765,000 $30,000 Pearl City Pacific Palisades Ka Momi Nani Heights
966 410 Atkinson Drive 2507 Active 01-12-2019 $609,000 $599,000 $10,000 Metro Ala Moana Ala Moana Hotel Condo
967 1777 Ala Moana Boulevard 608 Active 01-11-2019 $750,000 $719,000 $31,000 Metro Waikiki Ilikai Apt Bldg
968 1001 Queen Street 2510 Active 01-11-2019 $710,000 $680,000 $30,000 Metro Kakaako Ae'o
969 300 Wai Nani Way I1204 Active 01-11-2019 $450,000 $430,000 $20,000 Metro Waikiki Liliuokalani Gardens
970 54-061 Kamehameha Highway Active 01-10-2019 $759,000 $735,000 $24,000 Kaneohe Hauula
Count Address Status List Date Original Price Current Price Difference Region Neighborhood Building Name
971 1314 S King Street 763 Active 01-10-2019 $85,000 $68,000 $17,000 Metro Makiki Area Interstate Bldg
972 204 Kapahulu Avenue 402 Active 01-08-2019 $650,000 $630,000 $20,000 Metro Waikiki Makee Ailana
973 2421 Tusitala Street 2602 Active 01-08-2019 $364,000 $339,000 $25,000 Metro Waikiki Waikiki Townhouse
974 1544 Mahiole Street Active 01-04-2019 $1,650,000 $1,595,000 $55,000 Metro Moanalua Gardens
975 94-836 Lelepua Street 15D Active 01-04-2019 $490,000 $475,000 $15,000 Waipahu Waipio Gentry Liolio
976 68-533 Crozier Drive Active 01-03-2019 $2,150,000 $2,095,000 $55,000 North Shore Mokuleia
977 3577 Pinao Street 8 Active 01-03-2019 $950,000 $899,000 $51,000 Metro Manoa-upper
978 703 Puuikena Drive Active 01-02-2019 $2,798,000 $2,695,000 $103,000 Diamond Head Hawaii Loa Ridge
979 2231 Mohala Way Active 01-02-2019 $2,498,000 $2,198,000 $300,000 Metro Manoa Area
980 223 Saratoga Road 2603 Active 01-02-2019 $2,400,000 $2,150,000 $250,000 Metro Waikiki Trump Tower Waikiki
Count Address Status List Date Original Price Current Price Difference Region Neighborhood Building Name
981 61-259 Kamehameha Highway Active 01-01-2019 $2,695,000 $2,495,000 $200,000 North Shore Kawailoa-north Shore
982 47-849 Kamehameha Highway Active 01-01-2019 $1,395,000 $1,350,000 $45,000 Kaneohe Kaalaea
983 4999 Kahala Avenue 163 Active 12-28-2018 $145,000 $120,000 $25,000 Diamond Head Waialae G-c Kahala Beach
984 383 Kalaimoku Street 1601 Active 12-25-2018 $890,000 $840,000 $50,000 Metro Waikiki The Ritz-carlton Residences - 383 Kalaim
985 1001 Queen Street 1111 Active 12-24-2018 $675,000 $615,000 $60,000 Metro Kakaako Ae'o
986 1920 Ala Moana Boulevard 1002 Active 12-23-2018 $90,000 $78,000 $12,000 Metro Waikiki Inn On The Park
987 1001 Queen Street 3503 Active 12-20-2018 $1,189,000 $960,000 $229,000 Metro Kakaako Ae'o
988 2120 Lauula Street 2205 (Tower 2) Active 12-19-2018 $1,989,000 $1,590,000 $399,000 Metro Waikiki The Ritz-carlton Residences Twr 2 - 383
989 1555 Kapiolani Boulevard PH2101 Active 12-18-2018 $3,500,000 $3,460,000 $40,000 Metro Ala Moana One Ala Moana
990 2120 Lauula Street 2101 DH Tower Active 12-18-2018 $1,200,000 $998,000 $202,000 Metro Waikiki The Ritz-carlton Residences - 383 Kalaim
Count Address Status List Date Original Price Current Price Difference Region Neighborhood Building Name
991 1631 Kapiolani Boulevard 2206 Active 12-18-2018 $1,075,000 $895,000 $180,000 Metro Ala Moana Kapiolani Residence
992 3960 Gail Street Active 12-17-2018 $5,900,000 $5,500,000 $400,000 Diamond Head Diamond Head
993 1888 Kalakaua Avenue 2106 Active 12-15-2018 $758,000 $725,000 $33,000 Metro Waikiki Waikiki Landmark
994 57-013 Pahipahialua Place Active 12-14-2018 $6,000,000 $5,500,000 $500,000 North Shore Kawela Bay
995 1001 Queen Street 1706 Active 12-14-2018 $1,400,000 $1,300,000 $100,000 Metro Kakaako Ae'o
996 1777 Ala Moana Boulevard 2509 Active 12-10-2018 $1,888,000 $1,848,000 $40,000 Metro Waikiki Ilikai Apt Bldg
997 1777 Ala Moana Boulevard 2403 Active 12-10-2018 $900,000 $798,000 $102,000 Metro Waikiki Ilikai Apt Bldg
998 2066 9th Avenue Active 12-09-2018 $1,250,000 $1,183,888 $66,112 Diamond Head Palolo
999 824 Kinau Street 807 Active 12-06-2018 $250,000 $215,000 $35,000 Metro Punchbowl-lower Ward Kinau
1000 386 Wailupe Circle Active 12-05-2018 $3,200,000 $2,600,000 $600,000 Diamond Head Wailupe Area
Count Address Status List Date Original Price Current Price Difference Region Neighborhood Building Name
1001 1059 Kinau Street C Active 12-04-2018 $649,000 $578,000 $71,000 Metro Makiki Area
1002 2444 Hihiwai Street 1704 Active 12-03-2018 $1,175,000 $879,000 $296,000 Metro Kapiolani Kaimana Lanais
1003 4340 Pahoa Avenue 4A Active 12-01-2018 $1,149,000 $1,100,000 $49,000 Diamond Head Kahala Area Regency At Kahala
1004 1118 Ala Moana Boulevard 3003 Active 11-30-2018 $2,200,000 $2,100,000 $100,000 Metro Kakaako Waiea - 1118 Ala Moana
1005 926 Kealaolu Avenue Active 11-29-2018 $5,800,000 $5,595,000 $205,000 Diamond Head Kahala Area
1006 1837 Kalakaua Avenue 2510 Active 11-29-2018 $879,900 $845,000 $34,900 Metro Waikiki Allure Waikiki
1007 439 Keoniana Street PH3 Active 11-29-2018 $799,088 $735,000 $64,088 Metro Waikiki Oahu Surf 2
1008 1270 Luakalai Street Active 11-28-2018 $740,000 $710,000 $30,000 Ewa Plain Kapolei-mehana-la Hiki
1009 1388 Ala Moana Boulevard 7604 Active 11-26-2018 $5,988,000 $5,550,000 $438,000 Metro Ala Moana Park Lane
1010 1551 Aalapapa Drive Active 11-20-2018 $1,589,000 $1,468,000 $121,000 Kailua Lanikai
Count Address Status List Date Original Price Current Price Difference Region Neighborhood Building Name
1011 625 12th Avenue Active 11-20-2018 $1,300,000 $1,250,000 $50,000 Diamond Head Kaimuki
1012 44-109 Bayview Haven Place Active 11-16-2018 $2,000,000 $1,980,000 $20,000 Kaneohe Bay View Garden
1013 2120 Lauula Street 1505 (Tower 2) Active 11-13-2018 $1,798,000 $1,690,000 $108,000 Metro Waikiki The Ritz-carlton Residences Twr 2 - 383
1014 2120 Lauula Street 2402 Active 11-13-2018 $1,100,000 $880,000 $220,000 Metro Waikiki The Ritz-carlton Residences Twr 2 - 383
1015 2120 Lauula Street 1503- Tower 2 Active 11-13-2018 $848,988 $728,000 $120,988 Metro Waikiki The Ritz-carlton Residences Twr 2 - 383
1016 2549 Tantalus Drive Active 11-09-2018 $12,500,000 $10,999,999 $1,500,001 Metro Makiki Heights
1017 87-146 Kaukamana Street Active 11-08-2018 $745,000 $699,000 $46,000 Leeward Maili
1018 837 Kapahulu Avenue 405 Active 11-07-2018 $350,000 $329,000 $21,000 Diamond Head Kapahulu Kapahulu Vista Apts
1019 4140 Black Point Road Active 11-05-2018 $5,750,000 $5,380,000 $370,000 Diamond Head Kahala-black Point
1020 92-1014 Luawainui Street Active 11-05-2018 $1,249,000 $1,195,000 $54,000 Makakilo Makakilo-wai Kaloi
Count Address Status List Date Original Price Current Price Difference Region Neighborhood Building Name
1021 410 Atkinson Drive 846 Active 11-02-2018 $215,000 $193,500 $21,500 Metro Ala Moana Ala Moana Hotel Condo
1022 223 Saratoga Road 1007 Active 11-01-2018 $1,080,000 $948,000 $132,000 Metro Waikiki Trump Tower Waikiki
1023 955 Aalapapa Drive Active 10-29-2018 $3,625,000 $3,595,000 $30,000 Kailua Lanikai
1024 59-672 Kamehameha Highway Active 10-29-2018 $2,375,000 $2,180,000 $195,000 North Shore Sunset Area
1025 1837 Kalakaua Avenue 1510 Active 10-26-2018 $848,000 $828,000 $20,000 Metro Waikiki Allure Waikiki
1026 520 Lunalilo Home Road 6402 Active 10-24-2018 $780,000 $768,888 $11,112 Hawaii Kai West Marina Colony At The Peninsula
1027 92-1502 Aliinui Drive 502 Active 10-24-2018 $585,000 $575,000 $10,000 Ewa Plain Ko Olina Ko Olina Hillside Villas
1028 419 Atkinson Drive 701 Active 10-23-2018 $440,000 $390,000 $50,000 Metro Ala Moana Sunset Towers
1029 7007 Hawaii Kai Drive E12 Active 10-22-2018 $430,000 $379,000 $51,000 Hawaii Kai West Marina Mawaena Kai 1-2-3
1030 223 Saratoga Road 812 Active 10-19-2018 $555,000 $525,000 $30,000 Metro Waikiki Trump Tower Waikiki
Count Address Status List Date Original Price Current Price Difference Region Neighborhood Building Name
1031 2120 Lauula Street 1208 (Tower 2) Active 10-18-2018 $898,900 $795,000 $103,900 Metro Waikiki The Ritz-carlton Residences - 383 Kalaim
1032 92-921 Welo Street 111 Active 10-18-2018 $499,000 $479,900 $19,100 Makakilo Makakilo-upper Makakilo Hale 2
1033 2330 Kaola Way 3 Active 10-16-2018 $950,000 $925,000 $25,000 Metro Pauoa Valley Pacific Heights Park Pl
1034 55-147 Kamehameha Highway Active 10-11-2018 $7,300,000 $6,800,000 $500,000 North Shore Laie
1035 91-2032 Kaioli Street 6002 Active 10-09-2018 $585,900 $565,000 $20,900 Ewa Plain Ocean Pointe Spinnaker
1036 87-1236 Hakimo Road Active 10-08-2018 $1,230,000 $1,189,900 $40,100 Leeward Maili
1037 5589 Kalanianaole Highway Active 10-07-2018 $4,122,000 $3,340,000 $782,000 Diamond Head Niu Beach
1038 1517 Spreckels Street Active 10-05-2018 $899,999 $888,000 $11,999 Metro Punahou
1039 3639 Diamond Head Road Active 10-03-2018 $16,900,000 $15,800,000 $1,100,000 Diamond Head Diamond Head
1040 1042 8th Avenue Active 09-30-2018 $999,000 $899,000 $100,000 Diamond Head Kaimuki
Count Address Status List Date Original Price Current Price Difference Region Neighborhood Building Name
1041 45-081 Lilipuna Road C Active 09-28-2018 $1,695,000 $1,600,000 $95,000 Kaneohe Lilipuna
1042 219 N Kuakini Street A Active 09-27-2018 $1,399,000 $1,250,000 $149,000 Metro Nuuanu-lower
1043 223 Saratoga Road 1321 Active 09-27-2018 $500,000 $499,000 $1,000 Metro Waikiki Trump Tower Waikiki
1044 110 Coelho Way Active 09-24-2018 $3,300,000 $2,900,000 $400,000 Metro Nuuanu Area
1045 45-578 Keaahala Road Active 09-24-2018 $1,999,999 $1,850,000 $149,999 Kaneohe Halekauwila
1046 53-567 Kamehameha Highway 104 Active 09-23-2018 $299,000 $269,000 $30,000 Kaneohe Punaluu Pats At Punaluu
1047 59-781 Kamehameha Highway 1 & 2 Active 09-21-2018 $2,895,000 $2,749,000 $146,000 North Shore Sunset Area
1048 400 Hobron Lane 1711 Active 09-21-2018 $515,000 $485,000 $30,000 Metro Waikiki Villa On Eaton Square
1049 255 Beach Walk 36 Active 09-19-2018 $715,000 $690,000 $25,000 Metro Waikiki Regency On Beachwalk
1050 2139 Kuhio Avenue 1012 Active 09-18-2018 $1,200,000 $1,050,000 $150,000 Metro Waikiki The Ritz-carlton Residences - 383 Kalaim
Count Address Status List Date Original Price Current Price Difference Region Neighborhood Building Name
1051 2612-B Kapiolani Boulevard Active 09-17-2018 $1,399,000 $1,299,000 $100,000 Metro Moiliili
1052 383 Kalaimoku Street 1116 Active 09-15-2018 $1,700,000 $1,380,000 $320,000 Metro Waikiki The Ritz-carlton Residences - 383 Kalaim
1053 1792 Paailuna Way A Active 09-13-2018 $759,000 $699,000 $60,000 Pearl City Pacific Palisades
1054 1911 Kalakaua Avenue 405 Active 09-13-2018 $129,000 $124,999 $4,001 Metro Waikiki Kalakauan
1055 47-342 Mawaena Street Active 09-11-2018 $1,200,000 $1,099,000 $101,000 Kaneohe Lulani Ocean
1056 854 Mokulua Drive Active 09-07-2018 $5,255,000 $4,988,000 $267,000 Kailua Lanikai
1057 223 Saratoga Road 3108 Active 09-07-2018 $1,730,000 $1,690,000 $40,000 Metro Waikiki Trump Tower Waikiki
1058 445 Seaside Avenue 7th Floor Active 09-05-2018 $5,000,000 $4,800,000 $200,000 Metro Waikiki Island Colony
1059 1025 Kalo Place 907 Active 08-31-2018 $325,000 $274,000 $51,000 Metro Moiliili University Villa
1060 1388 Ala Moana Boulevard 5405 Active 08-30-2018 $7,288,000 $6,880,000 $408,000 Metro Ala Moana Park Lane
Count Address Status List Date Original Price Current Price Difference Region Neighborhood Building Name
1061 4462 Kahala Avenue Active 08-28-2018 $6,880,000 $5,950,000 $930,000 Diamond Head Kahala Area
1062 1625 Kalani Iki Street 24 Active 08-28-2018 $1,100,000 $1,050,000 $50,000 Diamond Head Kalani Iki Kalani Iki Estates
1063 1930 Umalu Place Active 08-28-2018 $940,000 $875,000 $65,000 Metro Kalihi Valley
1064 2139 Kuhio Avenue 1711 Active 08-28-2018 $985,000 $798,000 $187,000 Metro Waikiki The Ritz-carlton Residences Twr 2 - 383
1065 95-797 Wikao Street B201 Active 08-28-2018 $465,000 $445,000 $20,000 Central Launani Valley Streamside @ Launani Vly 1
1066 4360 Kahala Avenue Active 08-27-2018 $5,200,000 $4,500,000 $700,000 Diamond Head Kahala Area
1067 51-269 Kekio Road Active 08-16-2018 $1,450,000 $1,295,000 $155,000 Kaneohe Kaaawa
1068 3489 Manoa Road Active 08-10-2018 $1,229,000 $1,049,000 $180,000 Metro Manoa-upper
1069 2470 N School Street C Active 08-03-2018 $1,795,000 $1,639,000 $156,000 Metro Kalihi-lower
1070 Active 08-03-2018 $1,395,000 $1,237,000 $158,000 Kaneohe Kaalaea
Count Address Status List Date Original Price Current Price Difference Region Neighborhood Building Name
1071 1576 Pahulu Street Active 08-03-2018 $995,000 $950,000 $45,000 Metro Kalihi Uka
1072 1915 Kalihi Street Active 08-03-2018 $995,000 $905,000 $90,000 Metro Kalihi-lower
1073 1551 Nobrega Street Active 08-03-2018 $949,000 $905,000 $44,000 Metro Kalihi-upper
1074 2943 Kalakaua Avenue 203 Active 07-16-2018 $499,000 $449,000 $50,000 Diamond Head Diamond Head Tropic Seas Inc
1075 383 Kalaimoku Street 2209(Ewa Tower) Active 07-06-2018 $1,000,000 $930,000 $70,000 Metro Waikiki The Ritz-carlton Residences - 383 Kalaim
1076 425 Ena Road 406A Active 06-15-2018 $162,500 $129,900 $32,600 Metro Waikiki Kalia
1077 2511 Henry Street Active 06-04-2018 $849,000 $699,000 $150,000 Metro Nuuanu Area
1078 223 Saratoga Road 2118 Active 05-29-2018 $639,000 $560,000 $79,000 Metro Waikiki Trump Tower Waikiki
1079 4711 Kahala Avenue Active 04-10-2018 $7,800,000 $6,500,000 $1,300,000 Diamond Head Kahala Area
1080 95-082 Waimakua Drive Active 04-10-2018 $618,000 $500,000 $118,000 Central Waipio Acres-waikalani Woodlands
Count Address Status List Date Original Price Current Price Difference Region Neighborhood Building Name
1081 1700 Ala Moana Boulevard 2604 Active 04-05-2018 $273,000 $259,000 $14,000 Metro Waikiki Waikiki Marina Condominium
1082 1750 Kalakaua Avenue 4000 Active 03-29-2018 $640,000 $325,000 $315,000 Metro Mccully Century Center
1083 3619 Diamond Head Road Active 03-25-2018 $5,450,000 $5,350,000 $100,000 Diamond Head Diamond Head
1084 2233 Ala Wai Boulevard 18A Active 02-28-2018 $485,000 $399,000 $86,000 Metro Waikiki 2233 Ala Wai
1085 383 Kalaimoku Street 1612 Active 02-10-2018 $845,000 $745,000 $100,000 Metro Waikiki The Ritz-carlton Residences - 383 Kalaim
1086 1601 Mokulua Drive Active 02-08-2018 $1,475,000 $1,350,000 $125,000 Kailua Lanikai
1087 383 Kalaimoku Street 2702 Active 01-29-2018 $2,100,000 $1,848,000 $252,000 Metro Waikiki The Ritz-carlton Residences - 383 Kalaim
1088 742 Mokulua Drive Active 11-29-2017 $4,980,000 $3,989,000 $991,000 Kailua Lanikai
1089 2969 Kalakaua Avenue 1201 Active 11-05-2017 $5,350,000 $4,500,000 $850,000 Diamond Head Diamond Head Diamond Head Apts Ltd
1090 10 Poipu Place Active 10-23-2017 $7,500,000 $5,900,000 $1,600,000 Hawaii Kai Koko Kai
Count Address Status List Date Original Price Current Price Difference Region Neighborhood Building Name
1091 91-243 Ewa Beach Road Active 09-18-2017 $1,850,000 $1,700,000 $150,000 Ewa Plain Ewa Beach